<?xml version="1.0" encoding="UTF-8" standalone="no" ?>
<gpx xmlns="http://www.topografix.com/GPX/1/1" xmlns:xsi="http://www.w3.org/2001/XMLSchema-instance" xsi:schemaLocation="http://www.topografix.com/GPX/1/1 http://www.topografix.com/GPX/1/1/gpx.xsd" version="1.1" creator="VisuGPX - https://www.visugpx.com">
  <metadata>
    <name>222222</name>
    <desc><![CDATA[1234567890]]></desc>
  </metadata>
  <trk>
    <name><![CDATA[Track 001]]></name>
    <trkseg>
      <trkpt lat="43.76821" lon="5.53151">
        <ele>359.7</ele>
        <time>2014-12-25T14:17:40Z</time>
      </trkpt>
      <trkpt lat="43.76847" lon="5.53185">
        <ele>360.2</ele>
        <time>2014-12-25T14:17:50Z</time>
      </trkpt>
      <trkpt lat="43.76882" lon="5.5324">
        <ele>360.2</ele>
        <time>2014-12-25T14:18:02Z</time>
      </trkpt>
      <trkpt lat="43.76922" lon="5.53296">
        <ele>360.2</ele>
        <time>2014-12-25T14:18:13Z</time>
      </trkpt>
      <trkpt lat="43.76931" lon="5.53304">
        <ele>360.2</ele>
        <time>2014-12-25T14:18:15Z</time>
      </trkpt>
      <trkpt lat="43.76978" lon="5.53316">
        <ele>361.1</ele>
        <time>2014-12-25T14:18:24Z</time>
      </trkpt>
      <trkpt lat="43.7705" lon="5.53362">
        <ele>364.5</ele>
        <time>2014-12-25T14:18:39Z</time>
      </trkpt>
      <trkpt lat="43.77077" lon="5.53385">
        <ele>365</ele>
        <time>2014-12-25T14:18:46Z</time>
      </trkpt>
      <trkpt lat="43.77081" lon="5.53399">
        <ele>365</ele>
        <time>2014-12-25T14:18:48Z</time>
      </trkpt>
      <trkpt lat="43.7718" lon="5.53553">
        <ele>365.9</ele>
        <time>2014-12-25T14:19:14Z</time>
      </trkpt>
      <trkpt lat="43.77282" lon="5.53707">
        <ele>368.8</ele>
        <time>2014-12-25T14:19:39Z</time>
      </trkpt>
      <trkpt lat="43.7733" lon="5.53847">
        <ele>372.2</ele>
        <time>2014-12-25T14:19:59Z</time>
      </trkpt>
      <trkpt lat="43.77337" lon="5.53872">
        <ele>372.6</ele>
        <time>2014-12-25T14:20:03Z</time>
      </trkpt>
      <trkpt lat="43.77357" lon="5.53949">
        <ele>376</ele>
        <time>2014-12-25T14:20:16Z</time>
      </trkpt>
      <trkpt lat="43.77363" lon="5.53971">
        <ele>377</ele>
        <time>2014-12-25T14:20:20Z</time>
      </trkpt>
      <trkpt lat="43.7738" lon="5.54035">
        <ele>379.9</ele>
        <time>2014-12-25T14:20:32Z</time>
      </trkpt>
      <trkpt lat="43.7743" lon="5.54078">
        <ele>382.7</ele>
        <time>2014-12-25T14:20:49Z</time>
      </trkpt>
      <trkpt lat="43.7748" lon="5.54105">
        <ele>386.1</ele>
        <time>2014-12-25T14:21:03Z</time>
      </trkpt>
      <trkpt lat="43.77486" lon="5.54112">
        <ele>386.6</ele>
        <time>2014-12-25T14:21:05Z</time>
      </trkpt>
      <trkpt lat="43.77544" lon="5.54195">
        <ele>390</ele>
        <time>2014-12-25T14:21:26Z</time>
      </trkpt>
      <trkpt lat="43.77637" lon="5.54322">
        <ele>391.9</ele>
        <time>2014-12-25T14:21:54Z</time>
      </trkpt>
      <trkpt lat="43.77722" lon="5.54482">
        <ele>391.9</ele>
        <time>2014-12-25T14:22:18Z</time>
      </trkpt>
      <trkpt lat="43.77757" lon="5.54635">
        <ele>393.3</ele>
        <time>2014-12-25T14:22:37Z</time>
      </trkpt>
      <trkpt lat="43.77774" lon="5.54642">
        <ele>393.8</ele>
        <time>2014-12-25T14:22:42Z</time>
      </trkpt>
      <trkpt lat="43.77832" lon="5.54603">
        <ele>397.6</ele>
        <time>2014-12-25T14:23:00Z</time>
      </trkpt>
      <trkpt lat="43.77887" lon="5.54574">
        <ele>401</ele>
        <time>2014-12-25T14:23:17Z</time>
      </trkpt>
      <trkpt lat="43.77961" lon="5.54545">
        <ele>403.9</ele>
        <time>2014-12-25T14:23:38Z</time>
      </trkpt>
      <trkpt lat="43.78039" lon="5.54514">
        <ele>407.3</ele>
        <time>2014-12-25T14:23:58Z</time>
      </trkpt>
      <trkpt lat="43.78114" lon="5.54475">
        <ele>410.6</ele>
        <time>2014-12-25T14:24:18Z</time>
      </trkpt>
      <trkpt lat="43.78147" lon="5.54456">
        <ele>413.5</ele>
        <time>2014-12-25T14:24:27Z</time>
      </trkpt>
      <trkpt lat="43.7822" lon="5.54413">
        <ele>416.4</ele>
        <time>2014-12-25T14:24:47Z</time>
      </trkpt>
      <trkpt lat="43.78275" lon="5.54396">
        <ele>416.9</ele>
        <time>2014-12-25T14:25:01Z</time>
      </trkpt>
      <trkpt lat="43.78315" lon="5.54399">
        <ele>413</ele>
        <time>2014-12-25T14:25:08Z</time>
      </trkpt>
      <trkpt lat="43.7833" lon="5.54397">
        <ele>411.1</ele>
        <time>2014-12-25T14:25:10Z</time>
      </trkpt>
      <trkpt lat="43.78445" lon="5.54332">
        <ele>411.6</ele>
        <time>2014-12-25T14:25:30Z</time>
      </trkpt>
      <trkpt lat="43.7846" lon="5.54319">
        <ele>411.1</ele>
        <time>2014-12-25T14:25:33Z</time>
      </trkpt>
      <trkpt lat="43.78482" lon="5.54306">
        <ele>409.7</ele>
        <time>2014-12-25T14:25:37Z</time>
      </trkpt>
      <trkpt lat="43.78521" lon="5.54294">
        <ele>405.8</ele>
        <time>2014-12-25T14:25:42Z</time>
      </trkpt>
      <trkpt lat="43.78566" lon="5.54282">
        <ele>409.2</ele>
        <time>2014-12-25T14:25:49Z</time>
      </trkpt>
      <trkpt lat="43.78572" lon="5.5428">
        <ele>409.2</ele>
        <time>2014-12-25T14:25:51Z</time>
      </trkpt>
      <trkpt lat="43.78576" lon="5.5429">
        <ele>411.1</ele>
        <time>2014-12-25T14:25:55Z</time>
      </trkpt>
      <trkpt lat="43.78572" lon="5.5432">
        <ele>414</ele>
        <time>2014-12-25T14:26:03Z</time>
      </trkpt>
      <trkpt lat="43.78581" lon="5.5435">
        <ele>417.3</ele>
        <time>2014-12-25T14:26:12Z</time>
      </trkpt>
      <trkpt lat="43.78633" lon="5.54369">
        <ele>418.3</ele>
        <time>2014-12-25T14:26:31Z</time>
      </trkpt>
      <trkpt lat="43.78697" lon="5.54343">
        <ele>421.7</ele>
        <time>2014-12-25T14:26:52Z</time>
      </trkpt>
      <trkpt lat="43.78703" lon="5.54341">
        <ele>421.7</ele>
        <time>2014-12-25T14:26:54Z</time>
      </trkpt>
      <trkpt lat="43.78711" lon="5.54348">
        <ele>423.1</ele>
        <time>2014-12-25T14:26:58Z</time>
      </trkpt>
      <trkpt lat="43.78718" lon="5.54349">
        <ele>424.6</ele>
        <time>2014-12-25T14:27:02Z</time>
      </trkpt>
      <trkpt lat="43.78731" lon="5.54346">
        <ele>427.9</ele>
        <time>2014-12-25T14:27:09Z</time>
      </trkpt>
      <trkpt lat="43.78765" lon="5.54337">
        <ele>431.3</ele>
        <time>2014-12-25T14:27:26Z</time>
      </trkpt>
      <trkpt lat="43.78784" lon="5.54336">
        <ele>433.2</ele>
        <time>2014-12-25T14:27:36Z</time>
      </trkpt>
      <trkpt lat="43.78803" lon="5.54351">
        <ele>436.6</ele>
        <time>2014-12-25T14:27:48Z</time>
      </trkpt>
      <trkpt lat="43.78785" lon="5.54393">
        <ele>439.9</ele>
        <time>2014-12-25T14:28:08Z</time>
      </trkpt>
      <trkpt lat="43.78779" lon="5.54413">
        <ele>442.8</ele>
        <time>2014-12-25T14:28:18Z</time>
      </trkpt>
      <trkpt lat="43.78772" lon="5.54441">
        <ele>446.2</ele>
        <time>2014-12-25T14:28:33Z</time>
      </trkpt>
      <trkpt lat="43.7877" lon="5.54472">
        <ele>449.6</ele>
        <time>2014-12-25T14:28:49Z</time>
      </trkpt>
      <trkpt lat="43.78769" lon="5.54483">
        <ele>452</ele>
        <time>2014-12-25T14:28:55Z</time>
      </trkpt>
      <trkpt lat="43.78767" lon="5.54501">
        <ele>453.9</ele>
        <time>2014-12-25T14:29:05Z</time>
      </trkpt>
      <trkpt lat="43.78767" lon="5.54508">
        <ele>455.3</ele>
        <time>2014-12-25T14:29:09Z</time>
      </trkpt>
      <trkpt lat="43.78766" lon="5.54533">
        <ele>459.2</ele>
        <time>2014-12-25T14:29:22Z</time>
      </trkpt>
      <trkpt lat="43.78766" lon="5.54535">
        <ele>459.6</ele>
        <time>2014-12-25T14:29:23Z</time>
      </trkpt>
      <trkpt lat="43.78768" lon="5.54563">
        <ele>463.5</ele>
        <time>2014-12-25T14:29:36Z</time>
      </trkpt>
      <trkpt lat="43.78768" lon="5.54565">
        <ele>463.5</ele>
        <time>2014-12-25T14:29:37Z</time>
      </trkpt>
      <trkpt lat="43.78787" lon="5.54616">
        <ele>465.9</ele>
        <time>2014-12-25T14:29:59Z</time>
      </trkpt>
      <trkpt lat="43.78797" lon="5.54617">
        <ele>466.4</ele>
        <time>2014-12-25T14:30:02Z</time>
      </trkpt>
      <trkpt lat="43.7882" lon="5.54603">
        <ele>464.5</ele>
        <time>2014-12-25T14:30:07Z</time>
      </trkpt>
      <trkpt lat="43.78844" lon="5.54585">
        <ele>461.1</ele>
        <time>2014-12-25T14:30:11Z</time>
      </trkpt>
      <trkpt lat="43.78856" lon="5.54572">
        <ele>459.6</ele>
        <time>2014-12-25T14:30:13Z</time>
      </trkpt>
      <trkpt lat="43.78887" lon="5.54549">
        <ele>459.2</ele>
        <time>2014-12-25T14:30:18Z</time>
      </trkpt>
      <trkpt lat="43.78907" lon="5.54541">
        <ele>459.2</ele>
        <time>2014-12-25T14:30:21Z</time>
      </trkpt>
      <trkpt lat="43.78919" lon="5.54533">
        <ele>458.2</ele>
        <time>2014-12-25T14:30:23Z</time>
      </trkpt>
      <trkpt lat="43.78954" lon="5.54504">
        <ele>460.6</ele>
        <time>2014-12-25T14:30:30Z</time>
      </trkpt>
      <trkpt lat="43.78963" lon="5.54501">
        <ele>462.5</ele>
        <time>2014-12-25T14:30:33Z</time>
      </trkpt>
      <trkpt lat="43.78984" lon="5.54491">
        <ele>464.9</ele>
        <time>2014-12-25T14:30:41Z</time>
      </trkpt>
      <trkpt lat="43.78995" lon="5.54487">
        <ele>466.4</ele>
        <time>2014-12-25T14:30:45Z</time>
      </trkpt>
      <trkpt lat="43.79062" lon="5.54467">
        <ele>468.3</ele>
        <time>2014-12-25T14:31:09Z</time>
      </trkpt>
      <trkpt lat="43.79124" lon="5.5445">
        <ele>473.1</ele>
        <time>2014-12-25T14:31:33Z</time>
      </trkpt>
      <trkpt lat="43.79126" lon="5.5445">
        <ele>473.1</ele>
        <time>2014-12-25T14:31:34Z</time>
      </trkpt>
      <trkpt lat="43.79154" lon="5.54444">
        <ele>476.5</ele>
        <time>2014-12-25T14:31:47Z</time>
      </trkpt>
      <trkpt lat="43.79168" lon="5.5444">
        <ele>479.4</ele>
        <time>2014-12-25T14:31:54Z</time>
      </trkpt>
      <trkpt lat="43.7917" lon="5.5444">
        <ele>479.4</ele>
        <time>2014-12-25T14:31:55Z</time>
      </trkpt>
      <trkpt lat="43.79176" lon="5.54439">
        <ele>480.8</ele>
        <time>2014-12-25T14:31:58Z</time>
      </trkpt>
      <trkpt lat="43.79215" lon="5.5443">
        <ele>484.2</ele>
        <time>2014-12-25T14:32:20Z</time>
      </trkpt>
      <trkpt lat="43.79253" lon="5.54415">
        <ele>487.5</ele>
        <time>2014-12-25T14:32:41Z</time>
      </trkpt>
      <trkpt lat="43.79293" lon="5.54396">
        <ele>490.9</ele>
        <time>2014-12-25T14:33:04Z</time>
      </trkpt>
      <trkpt lat="43.79315" lon="5.54387">
        <ele>494.3</ele>
        <time>2014-12-25T14:33:16Z</time>
      </trkpt>
      <trkpt lat="43.79317" lon="5.54387">
        <ele>494.3</ele>
        <time>2014-12-25T14:33:17Z</time>
      </trkpt>
      <trkpt lat="43.79339" lon="5.54376">
        <ele>498.1</ele>
        <time>2014-12-25T14:33:28Z</time>
      </trkpt>
      <trkpt lat="43.7939" lon="5.54371">
        <ele>494.3</ele>
        <time>2014-12-25T14:33:47Z</time>
      </trkpt>
      <trkpt lat="43.79429" lon="5.54384">
        <ele>494.7</ele>
        <time>2014-12-25T14:33:57Z</time>
      </trkpt>
      <trkpt lat="43.79457" lon="5.54391">
        <ele>497.6</ele>
        <time>2014-12-25T14:34:05Z</time>
      </trkpt>
      <trkpt lat="43.79477" lon="5.54408">
        <ele>501</ele>
        <time>2014-12-25T14:34:14Z</time>
      </trkpt>
      <trkpt lat="43.7948" lon="5.5441">
        <ele>501.5</ele>
        <time>2014-12-25T14:34:15Z</time>
      </trkpt>
      <trkpt lat="43.79525" lon="5.54442">
        <ele>504.3</ele>
        <time>2014-12-25T14:34:37Z</time>
      </trkpt>
      <trkpt lat="43.79547" lon="5.54451">
        <ele>507.2</ele>
        <time>2014-12-25T14:34:47Z</time>
      </trkpt>
      <trkpt lat="43.79581" lon="5.5446">
        <ele>509.2</ele>
        <time>2014-12-25T14:35:02Z</time>
      </trkpt>
      <trkpt lat="43.79594" lon="5.54465">
        <ele>511.6</ele>
        <time>2014-12-25T14:35:07Z</time>
      </trkpt>
      <trkpt lat="43.79655" lon="5.54517">
        <ele>510.6</ele>
        <time>2014-12-25T14:35:30Z</time>
      </trkpt>
      <trkpt lat="43.79663" lon="5.54528">
        <ele>510.6</ele>
        <time>2014-12-25T14:35:33Z</time>
      </trkpt>
      <trkpt lat="43.79705" lon="5.54562">
        <ele>512.5</ele>
        <time>2014-12-25T14:35:43Z</time>
      </trkpt>
      <trkpt lat="43.79723" lon="5.54577">
        <ele>512</ele>
        <time>2014-12-25T14:35:47Z</time>
      </trkpt>
      <trkpt lat="43.79733" lon="5.54583">
        <ele>510.6</ele>
        <time>2014-12-25T14:35:49Z</time>
      </trkpt>
      <trkpt lat="43.79824" lon="5.54643">
        <ele>511.6</ele>
        <time>2014-12-25T14:36:08Z</time>
      </trkpt>
      <trkpt lat="43.79835" lon="5.54648">
        <ele>513</ele>
        <time>2014-12-25T14:36:11Z</time>
      </trkpt>
      <trkpt lat="43.79848" lon="5.54655">
        <ele>514.9</ele>
        <time>2014-12-25T14:36:15Z</time>
      </trkpt>
      <trkpt lat="43.79856" lon="5.54661">
        <ele>516.8</ele>
        <time>2014-12-25T14:36:18Z</time>
      </trkpt>
      <trkpt lat="43.79876" lon="5.54696">
        <ele>519.7</ele>
        <time>2014-12-25T14:36:33Z</time>
      </trkpt>
      <trkpt lat="43.79881" lon="5.54703">
        <ele>521.2</ele>
        <time>2014-12-25T14:36:37Z</time>
      </trkpt>
      <trkpt lat="43.7989" lon="5.5472">
        <ele>525</ele>
        <time>2014-12-25T14:36:46Z</time>
      </trkpt>
      <trkpt lat="43.79897" lon="5.54745">
        <ele>528.4</ele>
        <time>2014-12-25T14:36:58Z</time>
      </trkpt>
      <trkpt lat="43.79899" lon="5.54749">
        <ele>527.9</ele>
        <time>2014-12-25T14:37:00Z</time>
      </trkpt>
      <trkpt lat="43.79908" lon="5.54769">
        <ele>530.3</ele>
        <time>2014-12-25T14:37:10Z</time>
      </trkpt>
      <trkpt lat="43.79917" lon="5.54791">
        <ele>534.1</ele>
        <time>2014-12-25T14:37:22Z</time>
      </trkpt>
      <trkpt lat="43.79918" lon="5.54795">
        <ele>534.6</ele>
        <time>2014-12-25T14:37:24Z</time>
      </trkpt>
      <trkpt lat="43.79939" lon="5.54818">
        <ele>537.5</ele>
        <time>2014-12-25T14:37:45Z</time>
      </trkpt>
      <trkpt lat="43.79951" lon="5.54817">
        <ele>540.9</ele>
        <time>2014-12-25T14:37:53Z</time>
      </trkpt>
      <trkpt lat="43.79971" lon="5.54808">
        <ele>544.2</ele>
        <time>2014-12-25T14:38:08Z</time>
      </trkpt>
      <trkpt lat="43.79973" lon="5.54807">
        <ele>544.2</ele>
        <time>2014-12-25T14:38:09Z</time>
      </trkpt>
      <trkpt lat="43.79986" lon="5.54793">
        <ele>547.1</ele>
        <time>2014-12-25T14:38:20Z</time>
      </trkpt>
      <trkpt lat="43.80021" lon="5.54768">
        <ele>550</ele>
        <time>2014-12-25T14:38:43Z</time>
      </trkpt>
      <trkpt lat="43.80054" lon="5.54782">
        <ele>551.5</ele>
        <time>2014-12-25T14:39:01Z</time>
      </trkpt>
      <trkpt lat="43.80058" lon="5.54792">
        <ele>552.9</ele>
        <time>2014-12-25T14:39:05Z</time>
      </trkpt>
      <trkpt lat="43.80098" lon="5.54821">
        <ele>557.2</ele>
        <time>2014-12-25T14:39:25Z</time>
      </trkpt>
      <trkpt lat="43.80144" lon="5.54868">
        <ele>559.1</ele>
        <time>2014-12-25T14:39:46Z</time>
      </trkpt>
      <trkpt lat="43.80129" lon="5.54918">
        <ele>562.5</ele>
        <time>2014-12-25T14:40:03Z</time>
      </trkpt>
      <trkpt lat="43.80117" lon="5.54935">
        <ele>564.4</ele>
        <time>2014-12-25T14:40:10Z</time>
      </trkpt>
      <trkpt lat="43.80105" lon="5.54951">
        <ele>564.4</ele>
        <time>2014-12-25T14:40:26Z</time>
      </trkpt>
      <trkpt lat="43.80108" lon="5.54952">
        <ele>564.4</ele>
        <time>2014-12-25T14:41:21Z</time>
      </trkpt>
      <trkpt lat="43.80124" lon="5.54972">
        <ele>567.3</ele>
        <time>2014-12-25T14:41:36Z</time>
      </trkpt>
      <trkpt lat="43.8013" lon="5.54975">
        <ele>568.8</ele>
        <time>2014-12-25T14:41:40Z</time>
      </trkpt>
      <trkpt lat="43.80166" lon="5.54986">
        <ele>572.6</ele>
        <time>2014-12-25T14:42:03Z</time>
      </trkpt>
      <trkpt lat="43.80194" lon="5.54994">
        <ele>576</ele>
        <time>2014-12-25T14:42:21Z</time>
      </trkpt>
      <trkpt lat="43.80217" lon="5.55001">
        <ele>578.9</ele>
        <time>2014-12-25T14:42:36Z</time>
      </trkpt>
      <trkpt lat="43.80238" lon="5.55008">
        <ele>582.2</ele>
        <time>2014-12-25T14:42:50Z</time>
      </trkpt>
      <trkpt lat="43.80255" lon="5.55012">
        <ele>585.1</ele>
        <time>2014-12-25T14:43:01Z</time>
      </trkpt>
      <trkpt lat="43.80279" lon="5.55021">
        <ele>588.9</ele>
        <time>2014-12-25T14:43:17Z</time>
      </trkpt>
      <trkpt lat="43.80303" lon="5.55025">
        <ele>592.3</ele>
        <time>2014-12-25T14:43:34Z</time>
      </trkpt>
      <trkpt lat="43.80319" lon="5.55026">
        <ele>595.2</ele>
        <time>2014-12-25T14:43:45Z</time>
      </trkpt>
      <trkpt lat="43.80336" lon="5.55028">
        <ele>598.6</ele>
        <time>2014-12-25T14:43:57Z</time>
      </trkpt>
      <trkpt lat="43.80363" lon="5.55034">
        <ele>601.9</ele>
        <time>2014-12-25T14:44:16Z</time>
      </trkpt>
      <trkpt lat="43.80379" lon="5.55039">
        <ele>605.3</ele>
        <time>2014-12-25T14:44:27Z</time>
      </trkpt>
      <trkpt lat="43.8041" lon="5.55054">
        <ele>608.7</ele>
        <time>2014-12-25T14:44:49Z</time>
      </trkpt>
      <trkpt lat="43.80417" lon="5.55055">
        <ele>609.6</ele>
        <time>2014-12-25T14:44:54Z</time>
      </trkpt>
      <trkpt lat="43.80437" lon="5.55055">
        <ele>613</ele>
        <time>2014-12-25T14:45:07Z</time>
      </trkpt>
      <trkpt lat="43.80468" lon="5.55052">
        <ele>616.3</ele>
        <time>2014-12-25T14:45:28Z</time>
      </trkpt>
      <trkpt lat="43.80496" lon="5.55049">
        <ele>619.2</ele>
        <time>2014-12-25T14:45:47Z</time>
      </trkpt>
      <trkpt lat="43.80512" lon="5.55045">
        <ele>622.6</ele>
        <time>2014-12-25T14:45:58Z</time>
      </trkpt>
      <trkpt lat="43.80514" lon="5.55045">
        <ele>622.6</ele>
        <time>2014-12-25T14:45:59Z</time>
      </trkpt>
      <trkpt lat="43.80549" lon="5.55035">
        <ele>625.5</ele>
        <time>2014-12-25T14:46:23Z</time>
      </trkpt>
      <trkpt lat="43.80562" lon="5.55033">
        <ele>628.4</ele>
        <time>2014-12-25T14:46:32Z</time>
      </trkpt>
      <trkpt lat="43.80566" lon="5.55032">
        <ele>629.8</ele>
        <time>2014-12-25T14:46:35Z</time>
      </trkpt>
      <trkpt lat="43.80589" lon="5.5503">
        <ele>633.6</ele>
        <time>2014-12-25T14:46:51Z</time>
      </trkpt>
      <trkpt lat="43.80601" lon="5.55029">
        <ele>637</ele>
        <time>2014-12-25T14:46:59Z</time>
      </trkpt>
      <trkpt lat="43.80604" lon="5.55029">
        <ele>637.5</ele>
        <time>2014-12-25T14:47:01Z</time>
      </trkpt>
      <trkpt lat="43.80619" lon="5.55028">
        <ele>640.9</ele>
        <time>2014-12-25T14:47:12Z</time>
      </trkpt>
      <trkpt lat="43.80629" lon="5.55027">
        <ele>642.3</ele>
        <time>2014-12-25T14:47:19Z</time>
      </trkpt>
      <trkpt lat="43.80652" lon="5.55025">
        <ele>645.7</ele>
        <time>2014-12-25T14:47:35Z</time>
      </trkpt>
      <trkpt lat="43.80654" lon="5.55024">
        <ele>645.7</ele>
        <time>2014-12-25T14:47:37Z</time>
      </trkpt>
      <trkpt lat="43.80682" lon="5.55022">
        <ele>650</ele>
        <time>2014-12-25T14:47:57Z</time>
      </trkpt>
      <trkpt lat="43.80695" lon="5.55023">
        <ele>652.9</ele>
        <time>2014-12-25T14:48:06Z</time>
      </trkpt>
      <trkpt lat="43.80722" lon="5.55025">
        <ele>656.2</ele>
        <time>2014-12-25T14:48:25Z</time>
      </trkpt>
      <trkpt lat="43.80746" lon="5.55027">
        <ele>659.6</ele>
        <time>2014-12-25T14:48:42Z</time>
      </trkpt>
      <trkpt lat="43.80756" lon="5.55028">
        <ele>663.4</ele>
        <time>2014-12-25T14:48:50Z</time>
      </trkpt>
      <trkpt lat="43.80761" lon="5.55028">
        <ele>663.9</ele>
        <time>2014-12-25T14:48:54Z</time>
      </trkpt>
      <trkpt lat="43.8078" lon="5.5503">
        <ele>667.8</ele>
        <time>2014-12-25T14:49:08Z</time>
      </trkpt>
      <trkpt lat="43.80798" lon="5.5501">
        <ele>669.7</ele>
        <time>2014-12-25T14:49:26Z</time>
      </trkpt>
      <trkpt lat="43.80811" lon="5.54976">
        <ele>673.1</ele>
        <time>2014-12-25T14:49:47Z</time>
      </trkpt>
      <trkpt lat="43.80816" lon="5.54964">
        <ele>673.1</ele>
        <time>2014-12-25T14:49:54Z</time>
      </trkpt>
      <trkpt lat="43.80833" lon="5.5495">
        <ele>676.9</ele>
        <time>2014-12-25T14:50:09Z</time>
      </trkpt>
      <trkpt lat="43.80838" lon="5.54956">
        <ele>677.9</ele>
        <time>2014-12-25T14:50:14Z</time>
      </trkpt>
      <trkpt lat="43.80863" lon="5.54962">
        <ele>681.2</ele>
        <time>2014-12-25T14:50:33Z</time>
      </trkpt>
      <trkpt lat="43.80872" lon="5.54964">
        <ele>684.1</ele>
        <time>2014-12-25T14:50:40Z</time>
      </trkpt>
      <trkpt lat="43.80886" lon="5.54969">
        <ele>687.5</ele>
        <time>2014-12-25T14:50:51Z</time>
      </trkpt>
      <trkpt lat="43.80902" lon="5.54975">
        <ele>690.8</ele>
        <time>2014-12-25T14:51:04Z</time>
      </trkpt>
      <trkpt lat="43.80921" lon="5.54978">
        <ele>694.2</ele>
        <time>2014-12-25T14:51:20Z</time>
      </trkpt>
      <trkpt lat="43.8094" lon="5.54973">
        <ele>698.1</ele>
        <time>2014-12-25T14:51:36Z</time>
      </trkpt>
      <trkpt lat="43.80941" lon="5.54972">
        <ele>698.1</ele>
        <time>2014-12-25T14:51:37Z</time>
      </trkpt>
      <trkpt lat="43.80954" lon="5.54969">
        <ele>701.9</ele>
        <time>2014-12-25T14:51:48Z</time>
      </trkpt>
      <trkpt lat="43.80955" lon="5.54969">
        <ele>702.4</ele>
        <time>2014-12-25T14:51:49Z</time>
      </trkpt>
      <trkpt lat="43.80969" lon="5.54965">
        <ele>705.3</ele>
        <time>2014-12-25T14:52:00Z</time>
      </trkpt>
      <trkpt lat="43.80985" lon="5.54958">
        <ele>708.6</ele>
        <time>2014-12-25T14:52:14Z</time>
      </trkpt>
      <trkpt lat="43.81004" lon="5.54945">
        <ele>712</ele>
        <time>2014-12-25T14:52:32Z</time>
      </trkpt>
      <trkpt lat="43.81016" lon="5.54938">
        <ele>713.9</ele>
        <time>2014-12-25T14:52:43Z</time>
      </trkpt>
      <trkpt lat="43.81025" lon="5.54924">
        <ele>717.3</ele>
        <time>2014-12-25T14:52:56Z</time>
      </trkpt>
      <trkpt lat="43.81027" lon="5.54921">
        <ele>717.8</ele>
        <time>2014-12-25T14:52:58Z</time>
      </trkpt>
      <trkpt lat="43.81033" lon="5.54913">
        <ele>719.7</ele>
        <time>2014-12-25T14:53:05Z</time>
      </trkpt>
      <trkpt lat="43.81039" lon="5.54871">
        <ele>722.6</ele>
        <time>2014-12-25T14:53:28Z</time>
      </trkpt>
      <trkpt lat="43.81048" lon="5.54854">
        <ele>725.9</ele>
        <time>2014-12-25T14:53:40Z</time>
      </trkpt>
      <trkpt lat="43.81063" lon="5.54837">
        <ele>727.9</ele>
        <time>2014-12-25T14:53:55Z</time>
      </trkpt>
      <trkpt lat="43.81065" lon="5.54836">
        <ele>728.8</ele>
        <time>2014-12-25T14:53:57Z</time>
      </trkpt>
      <trkpt lat="43.8107" lon="5.54826">
        <ele>730.7</ele>
        <time>2014-12-25T14:54:03Z</time>
      </trkpt>
      <trkpt lat="43.81077" lon="5.54823">
        <ele>732.7</ele>
        <time>2014-12-25T14:54:09Z</time>
      </trkpt>
      <trkpt lat="43.81091" lon="5.54853">
        <ele>735.5</ele>
        <time>2014-12-25T14:54:31Z</time>
      </trkpt>
      <trkpt lat="43.81103" lon="5.54882">
        <ele>738.9</ele>
        <time>2014-12-25T14:54:50Z</time>
      </trkpt>
      <trkpt lat="43.81104" lon="5.54885">
        <ele>738.9</ele>
        <time>2014-12-25T14:54:52Z</time>
      </trkpt>
      <trkpt lat="43.81116" lon="5.54918">
        <ele>741.8</ele>
        <time>2014-12-25T14:55:14Z</time>
      </trkpt>
      <trkpt lat="43.81125" lon="5.54936">
        <ele>744.7</ele>
        <time>2014-12-25T14:55:26Z</time>
      </trkpt>
      <trkpt lat="43.8113" lon="5.54943">
        <ele>746.1</ele>
        <time>2014-12-25T14:55:32Z</time>
      </trkpt>
      <trkpt lat="43.8113" lon="5.54965">
        <ele>749.5</ele>
        <time>2014-12-25T14:55:47Z</time>
      </trkpt>
      <trkpt lat="43.81112" lon="5.54988">
        <ele>750.9</ele>
        <time>2014-12-25T14:56:03Z</time>
      </trkpt>
      <trkpt lat="43.81106" lon="5.54999">
        <ele>752.4</ele>
        <time>2014-12-25T14:56:09Z</time>
      </trkpt>
      <trkpt lat="43.81103" lon="5.55009">
        <ele>753.3</ele>
        <time>2014-12-25T14:56:14Z</time>
      </trkpt>
      <trkpt lat="43.81097" lon="5.55057">
        <ele>757.2</ele>
        <time>2014-12-25T14:56:37Z</time>
      </trkpt>
      <trkpt lat="43.81096" lon="5.55079">
        <ele>760.1</ele>
        <time>2014-12-25T14:56:48Z</time>
      </trkpt>
      <trkpt lat="43.81093" lon="5.55126">
        <ele>762.5</ele>
        <time>2014-12-25T14:57:11Z</time>
      </trkpt>
      <trkpt lat="43.81092" lon="5.55169">
        <ele>765.8</ele>
        <time>2014-12-25T14:57:31Z</time>
      </trkpt>
      <trkpt lat="43.81088" lon="5.55223">
        <ele>768.7</ele>
        <time>2014-12-25T14:57:56Z</time>
      </trkpt>
      <trkpt lat="43.81089" lon="5.55234">
        <ele>770.6</ele>
        <time>2014-12-25T14:58:01Z</time>
      </trkpt>
      <trkpt lat="43.81097" lon="5.55272">
        <ele>773.5</ele>
        <time>2014-12-25T14:58:20Z</time>
      </trkpt>
      <trkpt lat="43.81101" lon="5.55299">
        <ele>777.4</ele>
        <time>2014-12-25T14:58:34Z</time>
      </trkpt>
      <trkpt lat="43.811" lon="5.55341">
        <ele>779.8</ele>
        <time>2014-12-25T14:58:56Z</time>
      </trkpt>
      <trkpt lat="43.81095" lon="5.55369">
        <ele>782.7</ele>
        <time>2014-12-25T14:59:10Z</time>
      </trkpt>
      <trkpt lat="43.81094" lon="5.5538">
        <ele>783.6</ele>
        <time>2014-12-25T14:59:15Z</time>
      </trkpt>
      <trkpt lat="43.81084" lon="5.55427">
        <ele>786.5</ele>
        <time>2014-12-25T14:59:35Z</time>
      </trkpt>
      <trkpt lat="43.81079" lon="5.5546">
        <ele>789.9</ele>
        <time>2014-12-25T14:59:48Z</time>
      </trkpt>
      <trkpt lat="43.81078" lon="5.55463">
        <ele>789.9</ele>
        <time>2014-12-25T14:59:49Z</time>
      </trkpt>
      <trkpt lat="43.81069" lon="5.55504">
        <ele>793.7</ele>
        <time>2014-12-25T15:00:06Z</time>
      </trkpt>
      <trkpt lat="43.81063" lon="5.55533">
        <ele>796.6</ele>
        <time>2014-12-25T15:00:18Z</time>
      </trkpt>
      <trkpt lat="43.81059" lon="5.55552">
        <ele>799</ele>
        <time>2014-12-25T15:00:27Z</time>
      </trkpt>
      <trkpt lat="43.81046" lon="5.55591">
        <ele>802.4</ele>
        <time>2014-12-25T15:00:44Z</time>
      </trkpt>
      <trkpt lat="43.81035" lon="5.55637">
        <ele>805.7</ele>
        <time>2014-12-25T15:01:05Z</time>
      </trkpt>
      <trkpt lat="43.81023" lon="5.5567">
        <ele>809.1</ele>
        <time>2014-12-25T15:01:24Z</time>
      </trkpt>
      <trkpt lat="43.81014" lon="5.55702">
        <ele>812</ele>
        <time>2014-12-25T15:01:40Z</time>
      </trkpt>
      <trkpt lat="43.81005" lon="5.55743">
        <ele>815.3</ele>
        <time>2014-12-25T15:01:59Z</time>
      </trkpt>
      <trkpt lat="43.81002" lon="5.55783">
        <ele>818.7</ele>
        <time>2014-12-25T15:02:18Z</time>
      </trkpt>
      <trkpt lat="43.81001" lon="5.55808">
        <ele>821.6</ele>
        <time>2014-12-25T15:02:30Z</time>
      </trkpt>
      <trkpt lat="43.81" lon="5.55862">
        <ele>824</ele>
        <time>2014-12-25T15:02:56Z</time>
      </trkpt>
      <trkpt lat="43.81002" lon="5.55886">
        <ele>827.8</ele>
        <time>2014-12-25T15:03:07Z</time>
      </trkpt>
      <trkpt lat="43.81012" lon="5.55923">
        <ele>829.3</ele>
        <time>2014-12-25T15:03:26Z</time>
      </trkpt>
      <trkpt lat="43.81017" lon="5.55929">
        <ele>829.8</ele>
        <time>2014-12-25T15:03:31Z</time>
      </trkpt>
      <trkpt lat="43.81036" lon="5.55943">
        <ele>831.7</ele>
        <time>2014-12-25T15:03:46Z</time>
      </trkpt>
      <trkpt lat="43.8104" lon="5.55947">
        <ele>833.6</ele>
        <time>2014-12-25T15:03:49Z</time>
      </trkpt>
      <trkpt lat="43.81068" lon="5.55985">
        <ele>836.5</ele>
        <time>2014-12-25T15:04:11Z</time>
      </trkpt>
      <trkpt lat="43.8107" lon="5.55987">
        <ele>836.5</ele>
        <time>2014-12-25T15:04:12Z</time>
      </trkpt>
      <trkpt lat="43.81091" lon="5.56025">
        <ele>840.3</ele>
        <time>2014-12-25T15:04:31Z</time>
      </trkpt>
      <trkpt lat="43.81102" lon="5.56055">
        <ele>844.2</ele>
        <time>2014-12-25T15:04:44Z</time>
      </trkpt>
      <trkpt lat="43.81112" lon="5.56088">
        <ele>847.1</ele>
        <time>2014-12-25T15:04:58Z</time>
      </trkpt>
      <trkpt lat="43.81117" lon="5.56103">
        <ele>848.5</ele>
        <time>2014-12-25T15:05:04Z</time>
      </trkpt>
      <trkpt lat="43.81126" lon="5.56154">
        <ele>851.9</ele>
        <time>2014-12-25T15:05:24Z</time>
      </trkpt>
      <trkpt lat="43.81138" lon="5.56169">
        <ele>854.3</ele>
        <time>2014-12-25T15:05:33Z</time>
      </trkpt>
      <trkpt lat="43.81157" lon="5.56183">
        <ele>856.2</ele>
        <time>2014-12-25T15:05:45Z</time>
      </trkpt>
      <trkpt lat="43.81163" lon="5.56238">
        <ele>857.2</ele>
        <time>2014-12-25T15:06:06Z</time>
      </trkpt>
      <trkpt lat="43.81192" lon="5.56303">
        <ele>860</ele>
        <time>2014-12-25T15:06:31Z</time>
      </trkpt>
      <trkpt lat="43.81225" lon="5.56321">
        <ele>863.4</ele>
        <time>2014-12-25T15:06:49Z</time>
      </trkpt>
      <trkpt lat="43.81239" lon="5.56312">
        <ele>860</ele>
        <time>2014-12-25T15:06:57Z</time>
      </trkpt>
      <trkpt lat="43.81242" lon="5.5631">
        <ele>864.4</ele>
        <time>2014-12-25T15:06:59Z</time>
      </trkpt>
      <trkpt lat="43.81245" lon="5.56308">
        <ele>865.8</ele>
        <time>2014-12-25T15:07:01Z</time>
      </trkpt>
      <trkpt lat="43.8126" lon="5.56292">
        <ele>866.8</ele>
        <time>2014-12-25T15:07:13Z</time>
      </trkpt>
      <trkpt lat="43.81266" lon="5.56281">
        <ele>868.2</ele>
        <time>2014-12-25T15:07:19Z</time>
      </trkpt>
      <trkpt lat="43.81272" lon="5.56269">
        <ele>871.1</ele>
        <time>2014-12-25T15:07:26Z</time>
      </trkpt>
      <trkpt lat="43.81273" lon="5.56268">
        <ele>871.6</ele>
        <time>2014-12-25T15:07:27Z</time>
      </trkpt>
      <trkpt lat="43.81276" lon="5.56262">
        <ele>868.2</ele>
        <time>2014-12-25T15:07:30Z</time>
      </trkpt>
      <trkpt lat="43.81279" lon="5.56255">
        <ele>872.1</ele>
        <time>2014-12-25T15:07:34Z</time>
      </trkpt>
      <trkpt lat="43.81281" lon="5.56251">
        <ele>873</ele>
        <time>2014-12-25T15:07:36Z</time>
      </trkpt>
      <trkpt lat="43.81288" lon="5.56238">
        <ele>873.5</ele>
        <time>2014-12-25T15:07:43Z</time>
      </trkpt>
      <trkpt lat="43.813" lon="5.56213">
        <ele>877.8</ele>
        <time>2014-12-25T15:07:57Z</time>
      </trkpt>
      <trkpt lat="43.81302" lon="5.5621">
        <ele>878.8</ele>
        <time>2014-12-25T15:07:59Z</time>
      </trkpt>
      <trkpt lat="43.81305" lon="5.56205">
        <ele>877.3</ele>
        <time>2014-12-25T15:08:02Z</time>
      </trkpt>
      <trkpt lat="43.81306" lon="5.56202">
        <ele>879.3</ele>
        <time>2014-12-25T15:08:04Z</time>
      </trkpt>
      <trkpt lat="43.81309" lon="5.56197">
        <ele>877.3</ele>
        <time>2014-12-25T15:08:07Z</time>
      </trkpt>
      <trkpt lat="43.81317" lon="5.56184">
        <ele>882.6</ele>
        <time>2014-12-25T15:08:16Z</time>
      </trkpt>
      <trkpt lat="43.81318" lon="5.56183">
        <ele>882.6</ele>
        <time>2014-12-25T15:08:17Z</time>
      </trkpt>
      <trkpt lat="43.81346" lon="5.5614">
        <ele>886.5</ele>
        <time>2014-12-25T15:08:44Z</time>
      </trkpt>
      <trkpt lat="43.81347" lon="5.56135">
        <ele>887</ele>
        <time>2014-12-25T15:08:46Z</time>
      </trkpt>
      <trkpt lat="43.8135" lon="5.56124">
        <ele>886</ele>
        <time>2014-12-25T15:08:51Z</time>
      </trkpt>
      <trkpt lat="43.81352" lon="5.56115">
        <ele>887.4</ele>
        <time>2014-12-25T15:08:55Z</time>
      </trkpt>
      <trkpt lat="43.81353" lon="5.5611">
        <ele>886</ele>
        <time>2014-12-25T15:08:57Z</time>
      </trkpt>
      <trkpt lat="43.81361" lon="5.5609">
        <ele>887</ele>
        <time>2014-12-25T15:09:06Z</time>
      </trkpt>
      <trkpt lat="43.81367" lon="5.56076">
        <ele>884.1</ele>
        <time>2014-12-25T15:09:11Z</time>
      </trkpt>
      <trkpt lat="43.81369" lon="5.56073">
        <ele>887</ele>
        <time>2014-12-25T15:09:12Z</time>
      </trkpt>
      <trkpt lat="43.81375" lon="5.56061">
        <ele>886</ele>
        <time>2014-12-25T15:09:16Z</time>
      </trkpt>
      <trkpt lat="43.8141" lon="5.56006">
        <ele>885</ele>
        <time>2014-12-25T15:09:36Z</time>
      </trkpt>
      <trkpt lat="43.81451" lon="5.55941">
        <ele>888.4</ele>
        <time>2014-12-25T15:09:58Z</time>
      </trkpt>
      <trkpt lat="43.81479" lon="5.55896">
        <ele>891.3</ele>
        <time>2014-12-25T15:10:17Z</time>
      </trkpt>
      <trkpt lat="43.81499" lon="5.55843">
        <ele>894.6</ele>
        <time>2014-12-25T15:10:40Z</time>
      </trkpt>
      <trkpt lat="43.81505" lon="5.5583">
        <ele>896.6</ele>
        <time>2014-12-25T15:10:46Z</time>
      </trkpt>
      <trkpt lat="43.81523" lon="5.5579">
        <ele>900.9</ele>
        <time>2014-12-25T15:11:05Z</time>
      </trkpt>
      <trkpt lat="43.81528" lon="5.55777">
        <ele>901.9</ele>
        <time>2014-12-25T15:11:11Z</time>
      </trkpt>
      <trkpt lat="43.81529" lon="5.55773">
        <ele>899.9</ele>
        <time>2014-12-25T15:11:13Z</time>
      </trkpt>
      <trkpt lat="43.81532" lon="5.55767">
        <ele>902.3</ele>
        <time>2014-12-25T15:11:16Z</time>
      </trkpt>
      <trkpt lat="43.81535" lon="5.55757">
        <ele>903.8</ele>
        <time>2014-12-25T15:11:21Z</time>
      </trkpt>
      <trkpt lat="43.81544" lon="5.55733">
        <ele>908.1</ele>
        <time>2014-12-25T15:11:33Z</time>
      </trkpt>
      <trkpt lat="43.8155" lon="5.55719">
        <ele>906.2</ele>
        <time>2014-12-25T15:11:40Z</time>
      </trkpt>
      <trkpt lat="43.81552" lon="5.55713">
        <ele>909.5</ele>
        <time>2014-12-25T15:11:43Z</time>
      </trkpt>
      <trkpt lat="43.81553" lon="5.55711">
        <ele>910</ele>
        <time>2014-12-25T15:11:44Z</time>
      </trkpt>
      <trkpt lat="43.81564" lon="5.55683">
        <ele>913.4</ele>
        <time>2014-12-25T15:11:59Z</time>
      </trkpt>
      <trkpt lat="43.81564" lon="5.55681">
        <ele>912.9</ele>
        <time>2014-12-25T15:12:00Z</time>
      </trkpt>
      <trkpt lat="43.81567" lon="5.55675">
        <ele>914.4</ele>
        <time>2014-12-25T15:12:03Z</time>
      </trkpt>
      <trkpt lat="43.81572" lon="5.55662">
        <ele>914.4</ele>
        <time>2014-12-25T15:12:10Z</time>
      </trkpt>
      <trkpt lat="43.8158" lon="5.55639">
        <ele>917.2</ele>
        <time>2014-12-25T15:12:22Z</time>
      </trkpt>
      <trkpt lat="43.81588" lon="5.55617">
        <ele>916.8</ele>
        <time>2014-12-25T15:12:34Z</time>
      </trkpt>
      <trkpt lat="43.81582" lon="5.55612">
        <ele>918.7</ele>
        <time>2014-12-25T15:12:41Z</time>
      </trkpt>
      <trkpt lat="43.81547" lon="5.55626">
        <ele>921.6</ele>
        <time>2014-12-25T15:13:05Z</time>
      </trkpt>
      <trkpt lat="43.8153" lon="5.55628">
        <ele>923</ele>
        <time>2014-12-25T15:13:15Z</time>
      </trkpt>
      <trkpt lat="43.8149" lon="5.55626">
        <ele>925.9</ele>
        <time>2014-12-25T15:13:36Z</time>
      </trkpt>
      <trkpt lat="43.81452" lon="5.55616">
        <ele>928.8</ele>
        <time>2014-12-25T15:13:56Z</time>
      </trkpt>
      <trkpt lat="43.81436" lon="5.55612">
        <ele>932.1</ele>
        <time>2014-12-25T15:14:04Z</time>
      </trkpt>
      <trkpt lat="43.81394" lon="5.5559">
        <ele>934.5</ele>
        <time>2014-12-25T15:14:28Z</time>
      </trkpt>
      <trkpt lat="43.81371" lon="5.55555">
        <ele>938.9</ele>
        <time>2014-12-25T15:14:46Z</time>
      </trkpt>
      <trkpt lat="43.81366" lon="5.55514">
        <ele>940.3</ele>
        <time>2014-12-25T15:15:02Z</time>
      </trkpt>
      <trkpt lat="43.81368" lon="5.55498">
        <ele>942.7</ele>
        <time>2014-12-25T15:15:08Z</time>
      </trkpt>
      <trkpt lat="43.81368" lon="5.55493">
        <ele>939.8</ele>
        <time>2014-12-25T15:15:10Z</time>
      </trkpt>
      <trkpt lat="43.8137" lon="5.55485">
        <ele>942.7</ele>
        <time>2014-12-25T15:15:13Z</time>
      </trkpt>
      <trkpt lat="43.81376" lon="5.55424">
        <ele>942.2</ele>
        <time>2014-12-25T15:15:36Z</time>
      </trkpt>
      <trkpt lat="43.81377" lon="5.55421">
        <ele>945.6</ele>
        <time>2014-12-25T15:15:37Z</time>
      </trkpt>
      <trkpt lat="43.81378" lon="5.55419">
        <ele>944.6</ele>
        <time>2014-12-25T15:15:38Z</time>
      </trkpt>
      <trkpt lat="43.81394" lon="5.55394">
        <ele>945.6</ele>
        <time>2014-12-25T15:15:50Z</time>
      </trkpt>
      <trkpt lat="43.81429" lon="5.5534">
        <ele>948.5</ele>
        <time>2014-12-25T15:16:15Z</time>
      </trkpt>
      <trkpt lat="43.81466" lon="5.55307">
        <ele>951.8</ele>
        <time>2014-12-25T15:16:34Z</time>
      </trkpt>
      <trkpt lat="43.81468" lon="5.55304">
        <ele>950.4</ele>
        <time>2014-12-25T15:16:35Z</time>
      </trkpt>
      <trkpt lat="43.81491" lon="5.55273">
        <ele>952.3</ele>
        <time>2014-12-25T15:16:48Z</time>
      </trkpt>
      <trkpt lat="43.81496" lon="5.55219">
        <ele>955.2</ele>
        <time>2014-12-25T15:17:06Z</time>
      </trkpt>
      <trkpt lat="43.81495" lon="5.55215">
        <ele>954.7</ele>
        <time>2014-12-25T15:17:08Z</time>
      </trkpt>
      <trkpt lat="43.81495" lon="5.55215">
        <ele>952.3</ele>
        <time>2014-12-25T15:17:47Z</time>
      </trkpt>
      <trkpt lat="43.81495" lon="5.55217">
        <ele>954.2</ele>
        <time>2014-12-25T15:17:57Z</time>
      </trkpt>
      <trkpt lat="43.81493" lon="5.55216">
        <ele>954.7</ele>
        <time>2014-12-25T15:19:13Z</time>
      </trkpt>
      <trkpt lat="43.81488" lon="5.5515">
        <ele>953.3</ele>
        <time>2014-12-25T15:19:35Z</time>
      </trkpt>
      <trkpt lat="43.81488" lon="5.55138">
        <ele>954.7</ele>
        <time>2014-12-25T15:19:38Z</time>
      </trkpt>
      <trkpt lat="43.81506" lon="5.55071">
        <ele>953.3</ele>
        <time>2014-12-25T15:19:54Z</time>
      </trkpt>
      <trkpt lat="43.81518" lon="5.55045">
        <ele>955.2</ele>
        <time>2014-12-25T15:20:00Z</time>
      </trkpt>
      <trkpt lat="43.81533" lon="5.55011">
        <ele>953.3</ele>
        <time>2014-12-25T15:20:07Z</time>
      </trkpt>
      <trkpt lat="43.81558" lon="5.54922">
        <ele>956.2</ele>
        <time>2014-12-25T15:20:22Z</time>
      </trkpt>
      <trkpt lat="43.81559" lon="5.54916">
        <ele>955.2</ele>
        <time>2014-12-25T15:20:23Z</time>
      </trkpt>
      <trkpt lat="43.8156" lon="5.54897">
        <ele>954.7</ele>
        <time>2014-12-25T15:20:26Z</time>
      </trkpt>
      <trkpt lat="43.81562" lon="5.5487">
        <ele>952.3</ele>
        <time>2014-12-25T15:20:30Z</time>
      </trkpt>
      <trkpt lat="43.81565" lon="5.54827">
        <ele>951.8</ele>
        <time>2014-12-25T15:20:36Z</time>
      </trkpt>
      <trkpt lat="43.81576" lon="5.54778">
        <ele>950.4</ele>
        <time>2014-12-25T15:20:43Z</time>
      </trkpt>
      <trkpt lat="43.8159" lon="5.54719">
        <ele>952.3</ele>
        <time>2014-12-25T15:20:52Z</time>
      </trkpt>
      <trkpt lat="43.81589" lon="5.54705">
        <ele>951.8</ele>
        <time>2014-12-25T15:20:54Z</time>
      </trkpt>
      <trkpt lat="43.81583" lon="5.54671">
        <ele>951.8</ele>
        <time>2014-12-25T15:20:59Z</time>
      </trkpt>
      <trkpt lat="43.81581" lon="5.54657">
        <ele>950.9</ele>
        <time>2014-12-25T15:21:01Z</time>
      </trkpt>
      <trkpt lat="43.81581" lon="5.54615">
        <ele>949.9</ele>
        <time>2014-12-25T15:21:07Z</time>
      </trkpt>
      <trkpt lat="43.81598" lon="5.5456">
        <ele>945.6</ele>
        <time>2014-12-25T15:21:16Z</time>
      </trkpt>
      <trkpt lat="43.81601" lon="5.54554">
        <ele>949.4</ele>
        <time>2014-12-25T15:21:17Z</time>
      </trkpt>
      <trkpt lat="43.8161" lon="5.5454">
        <ele>948.5</ele>
        <time>2014-12-25T15:21:20Z</time>
      </trkpt>
      <trkpt lat="43.8162" lon="5.54528">
        <ele>947.5</ele>
        <time>2014-12-25T15:21:23Z</time>
      </trkpt>
      <trkpt lat="43.81636" lon="5.54517">
        <ele>946.1</ele>
        <time>2014-12-25T15:21:27Z</time>
      </trkpt>
      <trkpt lat="43.81652" lon="5.54511">
        <ele>943.2</ele>
        <time>2014-12-25T15:21:30Z</time>
      </trkpt>
      <trkpt lat="43.81717" lon="5.54499">
        <ele>939.3</ele>
        <time>2014-12-25T15:21:43Z</time>
      </trkpt>
      <trkpt lat="43.81721" lon="5.54499">
        <ele>939.8</ele>
        <time>2014-12-25T15:21:44Z</time>
      </trkpt>
      <trkpt lat="43.81737" lon="5.54496">
        <ele>937.9</ele>
        <time>2014-12-25T15:21:48Z</time>
      </trkpt>
      <trkpt lat="43.8178" lon="5.54471">
        <ele>942.2</ele>
        <time>2014-12-25T15:22:00Z</time>
      </trkpt>
      <trkpt lat="43.81835" lon="5.54429">
        <ele>943.7</ele>
        <time>2014-12-25T15:22:21Z</time>
      </trkpt>
      <trkpt lat="43.8184" lon="5.544">
        <ele>948</ele>
        <time>2014-12-25T15:22:28Z</time>
      </trkpt>
      <trkpt lat="43.81829" lon="5.54339">
        <ele>952.3</ele>
        <time>2014-12-25T15:22:44Z</time>
      </trkpt>
      <trkpt lat="43.81828" lon="5.54333">
        <ele>949</ele>
        <time>2014-12-25T15:22:46Z</time>
      </trkpt>
      <trkpt lat="43.81844" lon="5.54282">
        <ele>952.3</ele>
        <time>2014-12-25T15:23:05Z</time>
      </trkpt>
      <trkpt lat="43.81857" lon="5.54273">
        <ele>954.7</ele>
        <time>2014-12-25T15:23:11Z</time>
      </trkpt>
      <trkpt lat="43.81902" lon="5.54242">
        <ele>956.6</ele>
        <time>2014-12-25T15:23:31Z</time>
      </trkpt>
      <trkpt lat="43.81967" lon="5.542">
        <ele>960</ele>
        <time>2014-12-25T15:24:00Z</time>
      </trkpt>
      <trkpt lat="43.81982" lon="5.54187">
        <ele>963.4</ele>
        <time>2014-12-25T15:24:08Z</time>
      </trkpt>
      <trkpt lat="43.82007" lon="5.54141">
        <ele>965.3</ele>
        <time>2014-12-25T15:24:28Z</time>
      </trkpt>
      <trkpt lat="43.82018" lon="5.54112">
        <ele>967.7</ele>
        <time>2014-12-25T15:24:39Z</time>
      </trkpt>
      <trkpt lat="43.82029" lon="5.54062">
        <ele>971.1</ele>
        <time>2014-12-25T15:24:55Z</time>
      </trkpt>
      <trkpt lat="43.82035" lon="5.54011">
        <ele>972</ele>
        <time>2014-12-25T15:25:11Z</time>
      </trkpt>
      <trkpt lat="43.82034" lon="5.53947">
        <ele>975.4</ele>
        <time>2014-12-25T15:25:31Z</time>
      </trkpt>
      <trkpt lat="43.8203" lon="5.53922">
        <ele>976.4</ele>
        <time>2014-12-25T15:25:39Z</time>
      </trkpt>
      <trkpt lat="43.82043" lon="5.53848">
        <ele>978.3</ele>
        <time>2014-12-25T15:26:02Z</time>
      </trkpt>
      <trkpt lat="43.82058" lon="5.53807">
        <ele>981.6</ele>
        <time>2014-12-25T15:26:15Z</time>
      </trkpt>
      <trkpt lat="43.82071" lon="5.53778">
        <ele>982.6</ele>
        <time>2014-12-25T15:26:25Z</time>
      </trkpt>
      <trkpt lat="43.82081" lon="5.53755">
        <ele>985.5</ele>
        <time>2014-12-25T15:26:33Z</time>
      </trkpt>
      <trkpt lat="43.82081" lon="5.5369">
        <ele>988.4</ele>
        <time>2014-12-25T15:26:53Z</time>
      </trkpt>
      <trkpt lat="43.82064" lon="5.5366">
        <ele>989.8</ele>
        <time>2014-12-25T15:27:04Z</time>
      </trkpt>
      <trkpt lat="43.82044" lon="5.53637">
        <ele>989.8</ele>
        <time>2014-12-25T15:27:13Z</time>
      </trkpt>
      <trkpt lat="43.82022" lon="5.53602">
        <ele>993.2</ele>
        <time>2014-12-25T15:27:24Z</time>
      </trkpt>
      <trkpt lat="43.82011" lon="5.53588">
        <ele>994.1</ele>
        <time>2014-12-25T15:27:29Z</time>
      </trkpt>
      <trkpt lat="43.81989" lon="5.53559">
        <ele>996.5</ele>
        <time>2014-12-25T15:27:39Z</time>
      </trkpt>
      <trkpt lat="43.81953" lon="5.53501">
        <ele>999.9</ele>
        <time>2014-12-25T15:27:57Z</time>
      </trkpt>
      <trkpt lat="43.81937" lon="5.53482">
        <ele>1000.9</ele>
        <time>2014-12-25T15:28:04Z</time>
      </trkpt>
      <trkpt lat="43.8193" lon="5.53474">
        <ele>1002.8</ele>
        <time>2014-12-25T15:28:07Z</time>
      </trkpt>
      <trkpt lat="43.81922" lon="5.53467">
        <ele>1004.7</ele>
        <time>2014-12-25T15:28:10Z</time>
      </trkpt>
      <trkpt lat="43.8187" lon="5.53425">
        <ele>1008.6</ele>
        <time>2014-12-25T15:28:32Z</time>
      </trkpt>
      <trkpt lat="43.81829" lon="5.53387">
        <ele>1010</ele>
        <time>2014-12-25T15:28:53Z</time>
      </trkpt>
      <trkpt lat="43.81864" lon="5.53363">
        <ele>1013.8</ele>
        <time>2014-12-25T15:29:09Z</time>
      </trkpt>
      <trkpt lat="43.81867" lon="5.53362">
        <ele>1013.8</ele>
        <time>2014-12-25T15:29:10Z</time>
      </trkpt>
      <trkpt lat="43.81957" lon="5.53335">
        <ele>1015.8</ele>
        <time>2014-12-25T15:29:38Z</time>
      </trkpt>
      <trkpt lat="43.82003" lon="5.53313">
        <ele>1015.3</ele>
        <time>2014-12-25T15:29:51Z</time>
      </trkpt>
      <trkpt lat="43.82056" lon="5.53273">
        <ele>1013.8</ele>
        <time>2014-12-25T15:30:05Z</time>
      </trkpt>
      <trkpt lat="43.82089" lon="5.53226">
        <ele>1014.3</ele>
        <time>2014-12-25T15:30:15Z</time>
      </trkpt>
      <trkpt lat="43.82103" lon="5.53193">
        <ele>1013.4</ele>
        <time>2014-12-25T15:30:21Z</time>
      </trkpt>
      <trkpt lat="43.82109" lon="5.53166">
        <ele>1013.8</ele>
        <time>2014-12-25T15:30:26Z</time>
      </trkpt>
      <trkpt lat="43.8211" lon="5.53154">
        <ele>1012.4</ele>
        <time>2014-12-25T15:30:28Z</time>
      </trkpt>
      <trkpt lat="43.82114" lon="5.53122">
        <ele>1011</ele>
        <time>2014-12-25T15:30:33Z</time>
      </trkpt>
      <trkpt lat="43.82123" lon="5.53008">
        <ele>1009</ele>
        <time>2014-12-25T15:30:50Z</time>
      </trkpt>
      <trkpt lat="43.82121" lon="5.52967">
        <ele>1010.5</ele>
        <time>2014-12-25T15:30:56Z</time>
      </trkpt>
      <trkpt lat="43.82114" lon="5.52942">
        <ele>1011</ele>
        <time>2014-12-25T15:31:00Z</time>
      </trkpt>
      <trkpt lat="43.82106" lon="5.52924">
        <ele>1011</ele>
        <time>2014-12-25T15:31:03Z</time>
      </trkpt>
      <trkpt lat="43.82099" lon="5.52913">
        <ele>1012.9</ele>
        <time>2014-12-25T15:31:05Z</time>
      </trkpt>
      <trkpt lat="43.8209" lon="5.52893">
        <ele>1011</ele>
        <time>2014-12-25T15:31:08Z</time>
      </trkpt>
      <trkpt lat="43.82084" lon="5.52879">
        <ele>1010</ele>
        <time>2014-12-25T15:31:10Z</time>
      </trkpt>
      <trkpt lat="43.8208" lon="5.52832">
        <ele>1010</ele>
        <time>2014-12-25T15:31:16Z</time>
      </trkpt>
      <trkpt lat="43.82091" lon="5.52776">
        <ele>1009.5</ele>
        <time>2014-12-25T15:31:24Z</time>
      </trkpt>
      <trkpt lat="43.82106" lon="5.52723">
        <ele>1007.6</ele>
        <time>2014-12-25T15:31:32Z</time>
      </trkpt>
      <trkpt lat="43.82109" lon="5.5271">
        <ele>1007.1</ele>
        <time>2014-12-25T15:31:34Z</time>
      </trkpt>
      <trkpt lat="43.82115" lon="5.5269">
        <ele>1009</ele>
        <time>2014-12-25T15:31:37Z</time>
      </trkpt>
      <trkpt lat="43.82145" lon="5.52589">
        <ele>1006.2</ele>
        <time>2014-12-25T15:31:52Z</time>
      </trkpt>
      <trkpt lat="43.82184" lon="5.52473">
        <ele>1007.1</ele>
        <time>2014-12-25T15:32:07Z</time>
      </trkpt>
      <trkpt lat="43.82209" lon="5.52403">
        <ele>1007.6</ele>
        <time>2014-12-25T15:32:19Z</time>
      </trkpt>
      <trkpt lat="43.82212" lon="5.52383">
        <ele>1006.6</ele>
        <time>2014-12-25T15:32:22Z</time>
      </trkpt>
      <trkpt lat="43.82213" lon="5.52361">
        <ele>1007.1</ele>
        <time>2014-12-25T15:32:25Z</time>
      </trkpt>
      <trkpt lat="43.82203" lon="5.52314">
        <ele>1007.1</ele>
        <time>2014-12-25T15:32:31Z</time>
      </trkpt>
      <trkpt lat="43.82188" lon="5.52289">
        <ele>1006.6</ele>
        <time>2014-12-25T15:32:35Z</time>
      </trkpt>
      <trkpt lat="43.82162" lon="5.5227">
        <ele>1006.6</ele>
        <time>2014-12-25T15:32:40Z</time>
      </trkpt>
      <trkpt lat="43.82144" lon="5.52263">
        <ele>1007.1</ele>
        <time>2014-12-25T15:32:43Z</time>
      </trkpt>
      <trkpt lat="43.82122" lon="5.52246">
        <ele>1007.1</ele>
        <time>2014-12-25T15:32:47Z</time>
      </trkpt>
      <trkpt lat="43.82097" lon="5.52209">
        <ele>1007.6</ele>
        <time>2014-12-25T15:32:53Z</time>
      </trkpt>
      <trkpt lat="43.82083" lon="5.52174">
        <ele>1007.6</ele>
        <time>2014-12-25T15:32:59Z</time>
      </trkpt>
      <trkpt lat="43.82079" lon="5.52154">
        <ele>1008.1</ele>
        <time>2014-12-25T15:33:02Z</time>
      </trkpt>
      <trkpt lat="43.82076" lon="5.5214">
        <ele>1008.1</ele>
        <time>2014-12-25T15:33:04Z</time>
      </trkpt>
      <trkpt lat="43.82032" lon="5.52066">
        <ele>1009</ele>
        <time>2014-12-25T15:33:17Z</time>
      </trkpt>
      <trkpt lat="43.82021" lon="5.52024">
        <ele>1010</ele>
        <time>2014-12-25T15:33:27Z</time>
      </trkpt>
      <trkpt lat="43.8206" lon="5.51991">
        <ele>1013.8</ele>
        <time>2014-12-25T15:33:43Z</time>
      </trkpt>
      <trkpt lat="43.82072" lon="5.51981">
        <ele>1017.2</ele>
        <time>2014-12-25T15:33:50Z</time>
      </trkpt>
      <trkpt lat="43.82077" lon="5.51976">
        <ele>1014.8</ele>
        <time>2014-12-25T15:33:53Z</time>
      </trkpt>
      <trkpt lat="43.82101" lon="5.51937">
        <ele>1018.2</ele>
        <time>2014-12-25T15:34:07Z</time>
      </trkpt>
      <trkpt lat="43.82123" lon="5.51874">
        <ele>1018.7</ele>
        <time>2014-12-25T15:34:24Z</time>
      </trkpt>
      <trkpt lat="43.82129" lon="5.51787">
        <ele>1021.5</ele>
        <time>2014-12-25T15:34:46Z</time>
      </trkpt>
      <trkpt lat="43.82095" lon="5.51714">
        <ele>1024.9</ele>
        <time>2014-12-25T15:35:06Z</time>
      </trkpt>
      <trkpt lat="43.82034" lon="5.51657">
        <ele>1027.3</ele>
        <time>2014-12-25T15:35:31Z</time>
      </trkpt>
      <trkpt lat="43.82035" lon="5.51598">
        <ele>1029.2</ele>
        <time>2014-12-25T15:35:47Z</time>
      </trkpt>
      <trkpt lat="43.82044" lon="5.51487">
        <ele>1030.7</ele>
        <time>2014-12-25T15:36:12Z</time>
      </trkpt>
      <trkpt lat="43.82024" lon="5.5146">
        <ele>1034</ele>
        <time>2014-12-25T15:36:20Z</time>
      </trkpt>
      <trkpt lat="43.81971" lon="5.5142">
        <ele>1036.9</ele>
        <time>2014-12-25T15:36:36Z</time>
      </trkpt>
      <trkpt lat="43.81897" lon="5.514">
        <ele>1039.8</ele>
        <time>2014-12-25T15:36:56Z</time>
      </trkpt>
      <trkpt lat="43.81897" lon="5.51375">
        <ele>1039.8</ele>
        <time>2014-12-25T15:37:01Z</time>
      </trkpt>
      <trkpt lat="43.81914" lon="5.51298">
        <ele>1041.7</ele>
        <time>2014-12-25T15:37:16Z</time>
      </trkpt>
      <trkpt lat="43.8191" lon="5.51252">
        <ele>1042.7</ele>
        <time>2014-12-25T15:37:24Z</time>
      </trkpt>
      <trkpt lat="43.81907" lon="5.51228">
        <ele>1043.6</ele>
        <time>2014-12-25T15:37:28Z</time>
      </trkpt>
      <trkpt lat="43.81925" lon="5.5119">
        <ele>1040.8</ele>
        <time>2014-12-25T15:37:36Z</time>
      </trkpt>
      <trkpt lat="43.81934" lon="5.51185">
        <ele>1040.3</ele>
        <time>2014-12-25T15:37:38Z</time>
      </trkpt>
      <trkpt lat="43.81952" lon="5.51176">
        <ele>1040.8</ele>
        <time>2014-12-25T15:37:42Z</time>
      </trkpt>
      <trkpt lat="43.81976" lon="5.51163">
        <ele>1038.8</ele>
        <time>2014-12-25T15:37:47Z</time>
      </trkpt>
      <trkpt lat="43.81985" lon="5.51158">
        <ele>1039.3</ele>
        <time>2014-12-25T15:37:49Z</time>
      </trkpt>
      <trkpt lat="43.81995" lon="5.51155">
        <ele>1039.3</ele>
        <time>2014-12-25T15:37:51Z</time>
      </trkpt>
      <trkpt lat="43.82015" lon="5.51144">
        <ele>1038.4</ele>
        <time>2014-12-25T15:37:55Z</time>
      </trkpt>
      <trkpt lat="43.82025" lon="5.51137">
        <ele>1038.4</ele>
        <time>2014-12-25T15:37:57Z</time>
      </trkpt>
      <trkpt lat="43.82127" lon="5.51045">
        <ele>1036.9</ele>
        <time>2014-12-25T15:38:20Z</time>
      </trkpt>
      <trkpt lat="43.82141" lon="5.51024">
        <ele>1036.9</ele>
        <time>2014-12-25T15:38:24Z</time>
      </trkpt>
      <trkpt lat="43.82148" lon="5.51006">
        <ele>1035</ele>
        <time>2014-12-25T15:38:27Z</time>
      </trkpt>
      <trkpt lat="43.82153" lon="5.50982">
        <ele>1037.4</ele>
        <time>2014-12-25T15:38:31Z</time>
      </trkpt>
      <trkpt lat="43.82152" lon="5.5097">
        <ele>1038.4</ele>
        <time>2014-12-25T15:38:33Z</time>
      </trkpt>
      <trkpt lat="43.82148" lon="5.50959">
        <ele>1037.4</ele>
        <time>2014-12-25T15:38:35Z</time>
      </trkpt>
      <trkpt lat="43.82137" lon="5.50947">
        <ele>1037.4</ele>
        <time>2014-12-25T15:38:38Z</time>
      </trkpt>
      <trkpt lat="43.82092" lon="5.50919">
        <ele>1037.9</ele>
        <time>2014-12-25T15:38:48Z</time>
      </trkpt>
      <trkpt lat="43.82067" lon="5.50907">
        <ele>1037.4</ele>
        <time>2014-12-25T15:38:54Z</time>
      </trkpt>
      <trkpt lat="43.82054" lon="5.50899">
        <ele>1037.9</ele>
        <time>2014-12-25T15:38:57Z</time>
      </trkpt>
      <trkpt lat="43.81976" lon="5.50839">
        <ele>1038.8</ele>
        <time>2014-12-25T15:39:15Z</time>
      </trkpt>
      <trkpt lat="43.81961" lon="5.50832">
        <ele>1039.3</ele>
        <time>2014-12-25T15:39:18Z</time>
      </trkpt>
      <trkpt lat="43.81924" lon="5.50824">
        <ele>1038.4</ele>
        <time>2014-12-25T15:39:25Z</time>
      </trkpt>
      <trkpt lat="43.81903" lon="5.50819">
        <ele>1038.8</ele>
        <time>2014-12-25T15:39:29Z</time>
      </trkpt>
      <trkpt lat="43.8187" lon="5.50767">
        <ele>1037.9</ele>
        <time>2014-12-25T15:39:39Z</time>
      </trkpt>
      <trkpt lat="43.81867" lon="5.50742">
        <ele>1033.1</ele>
        <time>2014-12-25T15:39:42Z</time>
      </trkpt>
      <trkpt lat="43.81865" lon="5.50694">
        <ele>1030.2</ele>
        <time>2014-12-25T15:39:48Z</time>
      </trkpt>
      <trkpt lat="43.81848" lon="5.50589">
        <ele>1026.3</ele>
        <time>2014-12-25T15:40:00Z</time>
      </trkpt>
      <trkpt lat="43.81847" lon="5.5057">
        <ele>1022</ele>
        <time>2014-12-25T15:40:02Z</time>
      </trkpt>
      <trkpt lat="43.81847" lon="5.50559">
        <ele>1023.5</ele>
        <time>2014-12-25T15:40:03Z</time>
      </trkpt>
      <trkpt lat="43.81849" lon="5.50511">
        <ele>1021.1</ele>
        <time>2014-12-25T15:40:08Z</time>
      </trkpt>
      <trkpt lat="43.81854" lon="5.50487">
        <ele>1017.7</ele>
        <time>2014-12-25T15:40:11Z</time>
      </trkpt>
      <trkpt lat="43.81858" lon="5.50472">
        <ele>1017.7</ele>
        <time>2014-12-25T15:40:13Z</time>
      </trkpt>
      <trkpt lat="43.81869" lon="5.50445">
        <ele>1016.3</ele>
        <time>2014-12-25T15:40:17Z</time>
      </trkpt>
      <trkpt lat="43.81884" lon="5.50384">
        <ele>1016.7</ele>
        <time>2014-12-25T15:40:25Z</time>
      </trkpt>
      <trkpt lat="43.81883" lon="5.50377">
        <ele>1017.7</ele>
        <time>2014-12-25T15:40:27Z</time>
      </trkpt>
      <trkpt lat="43.81879" lon="5.50372">
        <ele>1018.2</ele>
        <time>2014-12-25T15:40:41Z</time>
      </trkpt>
      <trkpt lat="43.8188" lon="5.50374">
        <ele>1016.7</ele>
        <time>2014-12-25T15:41:30Z</time>
      </trkpt>
      <trkpt lat="43.81879" lon="5.50374">
        <ele>1017.7</ele>
        <time>2014-12-25T15:41:34Z</time>
      </trkpt>
      <trkpt lat="43.81867" lon="5.50386">
        <ele>1015.3</ele>
        <time>2014-12-25T15:41:41Z</time>
      </trkpt>
      <trkpt lat="43.81854" lon="5.50398">
        <ele>1013.4</ele>
        <time>2014-12-25T15:41:46Z</time>
      </trkpt>
      <trkpt lat="43.8185" lon="5.50404">
        <ele>1013.8</ele>
        <time>2014-12-25T15:41:48Z</time>
      </trkpt>
      <trkpt lat="43.81839" lon="5.50414">
        <ele>1011.9</ele>
        <time>2014-12-25T15:41:51Z</time>
      </trkpt>
      <trkpt lat="43.81831" lon="5.50422">
        <ele>1010.5</ele>
        <time>2014-12-25T15:41:53Z</time>
      </trkpt>
      <trkpt lat="43.81815" lon="5.50441">
        <ele>1007.1</ele>
        <time>2014-12-25T15:41:58Z</time>
      </trkpt>
      <trkpt lat="43.81803" lon="5.50452">
        <ele>1004.2</ele>
        <time>2014-12-25T15:42:04Z</time>
      </trkpt>
      <trkpt lat="43.81803" lon="5.50453">
        <ele>1003.8</ele>
        <time>2014-12-25T15:42:08Z</time>
      </trkpt>
      <trkpt lat="43.81801" lon="5.50457">
        <ele>1003.3</ele>
        <time>2014-12-25T15:42:12Z</time>
      </trkpt>
      <trkpt lat="43.81793" lon="5.50462">
        <ele>999.9</ele>
        <time>2014-12-25T15:42:21Z</time>
      </trkpt>
      <trkpt lat="43.81787" lon="5.50465">
        <ele>998.5</ele>
        <time>2014-12-25T15:42:39Z</time>
      </trkpt>
      <trkpt lat="43.81784" lon="5.50468">
        <ele>995.1</ele>
        <time>2014-12-25T15:42:49Z</time>
      </trkpt>
      <trkpt lat="43.81784" lon="5.50469">
        <ele>995.1</ele>
        <time>2014-12-25T15:42:50Z</time>
      </trkpt>
      <trkpt lat="43.81781" lon="5.50476">
        <ele>990.8</ele>
        <time>2014-12-25T15:43:02Z</time>
      </trkpt>
      <trkpt lat="43.81779" lon="5.50477">
        <ele>990.3</ele>
        <time>2014-12-25T15:43:08Z</time>
      </trkpt>
      <trkpt lat="43.81773" lon="5.50477">
        <ele>987.9</ele>
        <time>2014-12-25T15:43:28Z</time>
      </trkpt>
      <trkpt lat="43.81768" lon="5.50476">
        <ele>985</ele>
        <time>2014-12-25T15:43:39Z</time>
      </trkpt>
      <trkpt lat="43.81766" lon="5.50482">
        <ele>982.6</ele>
        <time>2014-12-25T15:43:49Z</time>
      </trkpt>
      <trkpt lat="43.81766" lon="5.50487">
        <ele>981.2</ele>
        <time>2014-12-25T15:44:10Z</time>
      </trkpt>
      <trkpt lat="43.81765" lon="5.50504">
        <ele>977.3</ele>
        <time>2014-12-25T15:44:27Z</time>
      </trkpt>
      <trkpt lat="43.81762" lon="5.50521">
        <ele>974</ele>
        <time>2014-12-25T15:44:44Z</time>
      </trkpt>
      <trkpt lat="43.8176" lon="5.50525">
        <ele>973</ele>
        <time>2014-12-25T15:44:51Z</time>
      </trkpt>
      <trkpt lat="43.81758" lon="5.50527">
        <ele>971.5</ele>
        <time>2014-12-25T15:44:58Z</time>
      </trkpt>
      <trkpt lat="43.81757" lon="5.50531">
        <ele>969.6</ele>
        <time>2014-12-25T15:45:03Z</time>
      </trkpt>
      <trkpt lat="43.81753" lon="5.50546">
        <ele>965.8</ele>
        <time>2014-12-25T15:45:14Z</time>
      </trkpt>
      <trkpt lat="43.81748" lon="5.50561">
        <ele>961.5</ele>
        <time>2014-12-25T15:45:32Z</time>
      </trkpt>
      <trkpt lat="43.81747" lon="5.50563">
        <ele>961.5</ele>
        <time>2014-12-25T15:45:33Z</time>
      </trkpt>
      <trkpt lat="43.81745" lon="5.50574">
        <ele>957.6</ele>
        <time>2014-12-25T15:45:44Z</time>
      </trkpt>
      <trkpt lat="43.81744" lon="5.50577">
        <ele>957.1</ele>
        <time>2014-12-25T15:45:47Z</time>
      </trkpt>
      <trkpt lat="43.81739" lon="5.50586">
        <ele>952.8</ele>
        <time>2014-12-25T15:45:57Z</time>
      </trkpt>
      <trkpt lat="43.81737" lon="5.50589">
        <ele>951.4</ele>
        <time>2014-12-25T15:46:01Z</time>
      </trkpt>
      <trkpt lat="43.81736" lon="5.50592">
        <ele>950.4</ele>
        <time>2014-12-25T15:46:22Z</time>
      </trkpt>
      <trkpt lat="43.81734" lon="5.50598">
        <ele>949</ele>
        <time>2014-12-25T15:46:25Z</time>
      </trkpt>
      <trkpt lat="43.81731" lon="5.5061">
        <ele>945.1</ele>
        <time>2014-12-25T15:46:34Z</time>
      </trkpt>
      <trkpt lat="43.81729" lon="5.50621">
        <ele>944.2</ele>
        <time>2014-12-25T15:46:44Z</time>
      </trkpt>
      <trkpt lat="43.81728" lon="5.50629">
        <ele>942.2</ele>
        <time>2014-12-25T15:46:47Z</time>
      </trkpt>
      <trkpt lat="43.81727" lon="5.50634">
        <ele>940.8</ele>
        <time>2014-12-25T15:46:49Z</time>
      </trkpt>
      <trkpt lat="43.81722" lon="5.5065">
        <ele>937.9</ele>
        <time>2014-12-25T15:46:54Z</time>
      </trkpt>
      <trkpt lat="43.8172" lon="5.50658">
        <ele>935</ele>
        <time>2014-12-25T15:46:56Z</time>
      </trkpt>
      <trkpt lat="43.81717" lon="5.50673">
        <ele>931.7</ele>
        <time>2014-12-25T15:47:00Z</time>
      </trkpt>
      <trkpt lat="43.81714" lon="5.50689">
        <ele>927.8</ele>
        <time>2014-12-25T15:47:04Z</time>
      </trkpt>
      <trkpt lat="43.8171" lon="5.50703">
        <ele>925.4</ele>
        <time>2014-12-25T15:47:07Z</time>
      </trkpt>
      <trkpt lat="43.81701" lon="5.50732">
        <ele>922</ele>
        <time>2014-12-25T15:47:14Z</time>
      </trkpt>
      <trkpt lat="43.817" lon="5.50736">
        <ele>922</ele>
        <time>2014-12-25T15:47:15Z</time>
      </trkpt>
      <trkpt lat="43.81693" lon="5.50752">
        <ele>918.2</ele>
        <time>2014-12-25T15:47:19Z</time>
      </trkpt>
      <trkpt lat="43.81688" lon="5.50764">
        <ele>915.3</ele>
        <time>2014-12-25T15:47:22Z</time>
      </trkpt>
      <trkpt lat="43.81682" lon="5.50782">
        <ele>912.9</ele>
        <time>2014-12-25T15:47:25Z</time>
      </trkpt>
      <trkpt lat="43.81678" lon="5.50795">
        <ele>910.5</ele>
        <time>2014-12-25T15:47:28Z</time>
      </trkpt>
      <trkpt lat="43.81672" lon="5.5081">
        <ele>907.6</ele>
        <time>2014-12-25T15:47:33Z</time>
      </trkpt>
      <trkpt lat="43.81669" lon="5.50822">
        <ele>903.8</ele>
        <time>2014-12-25T15:47:36Z</time>
      </trkpt>
      <trkpt lat="43.81663" lon="5.50829">
        <ele>900.4</ele>
        <time>2014-12-25T15:47:38Z</time>
      </trkpt>
      <trkpt lat="43.81655" lon="5.50837">
        <ele>899</ele>
        <time>2014-12-25T15:47:41Z</time>
      </trkpt>
      <trkpt lat="43.81648" lon="5.50844">
        <ele>895.1</ele>
        <time>2014-12-25T15:47:44Z</time>
      </trkpt>
      <trkpt lat="43.81639" lon="5.50858">
        <ele>892.7</ele>
        <time>2014-12-25T15:47:48Z</time>
      </trkpt>
      <trkpt lat="43.81633" lon="5.50868">
        <ele>889.4</ele>
        <time>2014-12-25T15:47:51Z</time>
      </trkpt>
      <trkpt lat="43.81631" lon="5.50872">
        <ele>889.4</ele>
        <time>2014-12-25T15:47:52Z</time>
      </trkpt>
      <trkpt lat="43.81623" lon="5.50887">
        <ele>885.5</ele>
        <time>2014-12-25T15:47:56Z</time>
      </trkpt>
      <trkpt lat="43.81614" lon="5.50902">
        <ele>881.7</ele>
        <time>2014-12-25T15:48:00Z</time>
      </trkpt>
      <trkpt lat="43.81611" lon="5.5091">
        <ele>879.3</ele>
        <time>2014-12-25T15:48:02Z</time>
      </trkpt>
      <trkpt lat="43.81598" lon="5.50929">
        <ele>875.4</ele>
        <time>2014-12-25T15:48:07Z</time>
      </trkpt>
      <trkpt lat="43.81591" lon="5.50938">
        <ele>873.5</ele>
        <time>2014-12-25T15:48:10Z</time>
      </trkpt>
      <trkpt lat="43.81579" lon="5.50964">
        <ele>869.2</ele>
        <time>2014-12-25T15:48:16Z</time>
      </trkpt>
      <trkpt lat="43.81571" lon="5.50978">
        <ele>866.8</ele>
        <time>2014-12-25T15:48:19Z</time>
      </trkpt>
      <trkpt lat="43.81559" lon="5.51005">
        <ele>862.4</ele>
        <time>2014-12-25T15:48:25Z</time>
      </trkpt>
      <trkpt lat="43.81558" lon="5.51007">
        <ele>862</ele>
        <time>2014-12-25T15:48:26Z</time>
      </trkpt>
      <trkpt lat="43.81559" lon="5.51013">
        <ele>860</ele>
        <time>2014-12-25T15:48:31Z</time>
      </trkpt>
      <trkpt lat="43.81558" lon="5.51015">
        <ele>858.6</ele>
        <time>2014-12-25T15:48:35Z</time>
      </trkpt>
      <trkpt lat="43.81555" lon="5.51024">
        <ele>857.6</ele>
        <time>2014-12-25T15:48:44Z</time>
      </trkpt>
      <trkpt lat="43.81552" lon="5.51028">
        <ele>855.7</ele>
        <time>2014-12-25T15:48:46Z</time>
      </trkpt>
      <trkpt lat="43.81544" lon="5.51042">
        <ele>853.8</ele>
        <time>2014-12-25T15:49:01Z</time>
      </trkpt>
      <trkpt lat="43.81542" lon="5.51041">
        <ele>853.3</ele>
        <time>2014-12-25T15:49:03Z</time>
      </trkpt>
      <trkpt lat="43.81536" lon="5.5105">
        <ele>849.5</ele>
        <time>2014-12-25T15:49:11Z</time>
      </trkpt>
      <trkpt lat="43.81532" lon="5.51063">
        <ele>846.1</ele>
        <time>2014-12-25T15:49:21Z</time>
      </trkpt>
      <trkpt lat="43.81531" lon="5.51067">
        <ele>845.1</ele>
        <time>2014-12-25T15:49:22Z</time>
      </trkpt>
      <trkpt lat="43.81524" lon="5.51078">
        <ele>841.3</ele>
        <time>2014-12-25T15:49:26Z</time>
      </trkpt>
      <trkpt lat="43.81523" lon="5.51081">
        <ele>840.8</ele>
        <time>2014-12-25T15:49:27Z</time>
      </trkpt>
      <trkpt lat="43.81518" lon="5.51092">
        <ele>836.5</ele>
        <time>2014-12-25T15:49:33Z</time>
      </trkpt>
      <trkpt lat="43.81516" lon="5.51099">
        <ele>834.6</ele>
        <time>2014-12-25T15:49:35Z</time>
      </trkpt>
      <trkpt lat="43.81515" lon="5.51109">
        <ele>833.1</ele>
        <time>2014-12-25T15:49:38Z</time>
      </trkpt>
      <trkpt lat="43.81514" lon="5.51118">
        <ele>829.3</ele>
        <time>2014-12-25T15:49:40Z</time>
      </trkpt>
      <trkpt lat="43.81514" lon="5.51121">
        <ele>828.3</ele>
        <time>2014-12-25T15:49:41Z</time>
      </trkpt>
      <trkpt lat="43.81505" lon="5.51139">
        <ele>823</ele>
        <time>2014-12-25T15:49:45Z</time>
      </trkpt>
      <trkpt lat="43.81494" lon="5.51159">
        <ele>819.7</ele>
        <time>2014-12-25T15:49:50Z</time>
      </trkpt>
      <trkpt lat="43.81477" lon="5.51176">
        <ele>814.9</ele>
        <time>2014-12-25T15:49:55Z</time>
      </trkpt>
      <trkpt lat="43.81464" lon="5.51189">
        <ele>812.9</ele>
        <time>2014-12-25T15:49:59Z</time>
      </trkpt>
      <trkpt lat="43.81455" lon="5.51203">
        <ele>808.1</ele>
        <time>2014-12-25T15:50:02Z</time>
      </trkpt>
      <trkpt lat="43.81446" lon="5.51226">
        <ele>802.4</ele>
        <time>2014-12-25T15:50:07Z</time>
      </trkpt>
      <trkpt lat="43.81441" lon="5.51232">
        <ele>801.4</ele>
        <time>2014-12-25T15:50:09Z</time>
      </trkpt>
      <trkpt lat="43.81438" lon="5.51238">
        <ele>799.5</ele>
        <time>2014-12-25T15:50:11Z</time>
      </trkpt>
      <trkpt lat="43.81431" lon="5.51234">
        <ele>795.1</ele>
        <time>2014-12-25T15:50:15Z</time>
      </trkpt>
      <trkpt lat="43.81424" lon="5.51227">
        <ele>793.2</ele>
        <time>2014-12-25T15:50:18Z</time>
      </trkpt>
      <trkpt lat="43.81418" lon="5.51221">
        <ele>791.3</ele>
        <time>2014-12-25T15:50:20Z</time>
      </trkpt>
      <trkpt lat="43.81409" lon="5.51213">
        <ele>787</ele>
        <time>2014-12-25T15:50:23Z</time>
      </trkpt>
      <trkpt lat="43.81403" lon="5.51208">
        <ele>782.7</ele>
        <time>2014-12-25T15:50:25Z</time>
      </trkpt>
      <trkpt lat="43.81393" lon="5.51185">
        <ele>778.8</ele>
        <time>2014-12-25T15:50:30Z</time>
      </trkpt>
      <trkpt lat="43.81389" lon="5.5117">
        <ele>775.4</ele>
        <time>2014-12-25T15:50:33Z</time>
      </trkpt>
      <trkpt lat="43.81386" lon="5.51162">
        <ele>773.5</ele>
        <time>2014-12-25T15:50:35Z</time>
      </trkpt>
      <trkpt lat="43.81386" lon="5.5114">
        <ele>769.2</ele>
        <time>2014-12-25T15:50:39Z</time>
      </trkpt>
      <trkpt lat="43.81373" lon="5.51126">
        <ele>765.8</ele>
        <time>2014-12-25T15:50:43Z</time>
      </trkpt>
      <trkpt lat="43.81367" lon="5.51128">
        <ele>762.5</ele>
        <time>2014-12-25T15:50:46Z</time>
      </trkpt>
      <trkpt lat="43.81365" lon="5.51132">
        <ele>762</ele>
        <time>2014-12-25T15:50:47Z</time>
      </trkpt>
      <trkpt lat="43.8136" lon="5.51143">
        <ele>758.1</ele>
        <time>2014-12-25T15:50:49Z</time>
      </trkpt>
      <trkpt lat="43.81343" lon="5.51165">
        <ele>754.8</ele>
        <time>2014-12-25T15:50:54Z</time>
      </trkpt>
      <trkpt lat="43.81328" lon="5.51185">
        <ele>750</ele>
        <time>2014-12-25T15:50:59Z</time>
      </trkpt>
      <trkpt lat="43.81325" lon="5.5119">
        <ele>749</ele>
        <time>2014-12-25T15:51:00Z</time>
      </trkpt>
      <trkpt lat="43.81312" lon="5.51215">
        <ele>743.7</ele>
        <time>2014-12-25T15:51:06Z</time>
      </trkpt>
      <trkpt lat="43.8131" lon="5.51214">
        <ele>743.2</ele>
        <time>2014-12-25T15:51:07Z</time>
      </trkpt>
      <trkpt lat="43.81307" lon="5.51208">
        <ele>742.8</ele>
        <time>2014-12-25T15:51:09Z</time>
      </trkpt>
      <trkpt lat="43.81303" lon="5.51198">
        <ele>740.4</ele>
        <time>2014-12-25T15:51:11Z</time>
      </trkpt>
      <trkpt lat="43.813" lon="5.51187">
        <ele>738.9</ele>
        <time>2014-12-25T15:51:13Z</time>
      </trkpt>
      <trkpt lat="43.81293" lon="5.5117">
        <ele>736</ele>
        <time>2014-12-25T15:51:16Z</time>
      </trkpt>
      <trkpt lat="43.81289" lon="5.51166">
        <ele>735.5</ele>
        <time>2014-12-25T15:51:17Z</time>
      </trkpt>
      <trkpt lat="43.81279" lon="5.51159">
        <ele>731.7</ele>
        <time>2014-12-25T15:51:20Z</time>
      </trkpt>
      <trkpt lat="43.81273" lon="5.51154">
        <ele>730.3</ele>
        <time>2014-12-25T15:51:22Z</time>
      </trkpt>
      <trkpt lat="43.8127" lon="5.51151">
        <ele>728.8</ele>
        <time>2014-12-25T15:51:23Z</time>
      </trkpt>
      <trkpt lat="43.81262" lon="5.51146">
        <ele>726.9</ele>
        <time>2014-12-25T15:51:25Z</time>
      </trkpt>
      <trkpt lat="43.81245" lon="5.51129">
        <ele>723</ele>
        <time>2014-12-25T15:51:30Z</time>
      </trkpt>
      <trkpt lat="43.81243" lon="5.51127">
        <ele>721.6</ele>
        <time>2014-12-25T15:51:31Z</time>
      </trkpt>
      <trkpt lat="43.8124" lon="5.51125">
        <ele>717.8</ele>
        <time>2014-12-25T15:51:55Z</time>
      </trkpt>
      <trkpt lat="43.81238" lon="5.51124">
        <ele>720.6</ele>
        <time>2014-12-25T15:52:41Z</time>
      </trkpt>
      <trkpt lat="43.81247" lon="5.51114">
        <ele>721.1</ele>
        <time>2014-12-25T15:53:12Z</time>
      </trkpt>
      <trkpt lat="43.81247" lon="5.51121">
        <ele>720.2</ele>
        <time>2014-12-25T15:53:34Z</time>
      </trkpt>
      <trkpt lat="43.81251" lon="5.5113">
        <ele>720.2</ele>
        <time>2014-12-25T15:53:48Z</time>
      </trkpt>
      <trkpt lat="43.81261" lon="5.51138">
        <ele>720.6</ele>
        <time>2014-12-25T15:54:05Z</time>
      </trkpt>
      <trkpt lat="43.81271" lon="5.51143">
        <ele>721.1</ele>
        <time>2014-12-25T15:54:25Z</time>
      </trkpt>
      <trkpt lat="43.81277" lon="5.5115">
        <ele>724.5</ele>
        <time>2014-12-25T15:54:41Z</time>
      </trkpt>
      <trkpt lat="43.81278" lon="5.51151">
        <ele>725.9</ele>
        <time>2014-12-25T15:54:45Z</time>
      </trkpt>
      <trkpt lat="43.81282" lon="5.51158">
        <ele>728.3</ele>
        <time>2014-12-25T15:55:08Z</time>
      </trkpt>
      <trkpt lat="43.81286" lon="5.5116">
        <ele>731.7</ele>
        <time>2014-12-25T15:55:16Z</time>
      </trkpt>
      <trkpt lat="43.81295" lon="5.51164">
        <ele>732.2</ele>
        <time>2014-12-25T15:55:35Z</time>
      </trkpt>
      <trkpt lat="43.81298" lon="5.51167">
        <ele>731.7</ele>
        <time>2014-12-25T15:55:43Z</time>
      </trkpt>
      <trkpt lat="43.81302" lon="5.51172">
        <ele>735.1</ele>
        <time>2014-12-25T15:55:54Z</time>
      </trkpt>
      <trkpt lat="43.81305" lon="5.51187">
        <ele>736</ele>
        <time>2014-12-25T15:56:11Z</time>
      </trkpt>
      <trkpt lat="43.81308" lon="5.512">
        <ele>737.5</ele>
        <time>2014-12-25T15:56:29Z</time>
      </trkpt>
      <trkpt lat="43.81314" lon="5.51211">
        <ele>740.4</ele>
        <time>2014-12-25T15:56:46Z</time>
      </trkpt>
      <trkpt lat="43.81321" lon="5.51207">
        <ele>741.8</ele>
        <time>2014-12-25T15:57:05Z</time>
      </trkpt>
      <trkpt lat="43.81323" lon="5.51201">
        <ele>743.7</ele>
        <time>2014-12-25T15:57:27Z</time>
      </trkpt>
      <trkpt lat="43.81329" lon="5.51195">
        <ele>745.2</ele>
        <time>2014-12-25T15:57:36Z</time>
      </trkpt>
      <trkpt lat="43.81333" lon="5.51183">
        <ele>748.5</ele>
        <time>2014-12-25T15:57:49Z</time>
      </trkpt>
      <trkpt lat="43.81339" lon="5.51171">
        <ele>750.4</ele>
        <time>2014-12-25T15:58:04Z</time>
      </trkpt>
      <trkpt lat="43.8135" lon="5.51159">
        <ele>753.8</ele>
        <time>2014-12-25T15:58:26Z</time>
      </trkpt>
      <trkpt lat="43.81358" lon="5.51152">
        <ele>755.7</ele>
        <time>2014-12-25T15:58:43Z</time>
      </trkpt>
      <trkpt lat="43.81363" lon="5.5115">
        <ele>756.2</ele>
        <time>2014-12-25T15:58:52Z</time>
      </trkpt>
      <trkpt lat="43.81368" lon="5.51132">
        <ele>757.2</ele>
        <time>2014-12-25T15:59:10Z</time>
      </trkpt>
      <trkpt lat="43.81372" lon="5.51126">
        <ele>760.5</ele>
        <time>2014-12-25T15:59:23Z</time>
      </trkpt>
      <trkpt lat="43.81378" lon="5.51125">
        <ele>763.4</ele>
        <time>2014-12-25T15:59:29Z</time>
      </trkpt>
      <trkpt lat="43.81387" lon="5.51132">
        <ele>765.8</ele>
        <time>2014-12-25T15:59:45Z</time>
      </trkpt>
      <trkpt lat="43.81393" lon="5.51139">
        <ele>765.8</ele>
        <time>2014-12-25T15:59:59Z</time>
      </trkpt>
      <trkpt lat="43.81394" lon="5.51148">
        <ele>769.7</ele>
        <time>2014-12-25T16:00:13Z</time>
      </trkpt>
      <trkpt lat="43.81393" lon="5.5116">
        <ele>770.6</ele>
        <time>2014-12-25T16:00:35Z</time>
      </trkpt>
      <trkpt lat="43.81396" lon="5.51171">
        <ele>772.6</ele>
        <time>2014-12-25T16:00:51Z</time>
      </trkpt>
      <trkpt lat="43.81397" lon="5.51175">
        <ele>776.4</ele>
        <time>2014-12-25T16:00:58Z</time>
      </trkpt>
      <trkpt lat="43.814" lon="5.51183">
        <ele>779.3</ele>
        <time>2014-12-25T16:01:11Z</time>
      </trkpt>
      <trkpt lat="43.81402" lon="5.51194">
        <ele>778.8</ele>
        <time>2014-12-25T16:01:29Z</time>
      </trkpt>
      <trkpt lat="43.81406" lon="5.51203">
        <ele>782.2</ele>
        <time>2014-12-25T16:01:43Z</time>
      </trkpt>
      <trkpt lat="43.81413" lon="5.51209">
        <ele>783.6</ele>
        <time>2014-12-25T16:02:00Z</time>
      </trkpt>
      <trkpt lat="43.81418" lon="5.51213">
        <ele>786.5</ele>
        <time>2014-12-25T16:02:14Z</time>
      </trkpt>
      <trkpt lat="43.81423" lon="5.51215">
        <ele>784.6</ele>
        <time>2014-12-25T16:02:21Z</time>
      </trkpt>
      <trkpt lat="43.81426" lon="5.51217">
        <ele>787.5</ele>
        <time>2014-12-25T16:02:30Z</time>
      </trkpt>
      <trkpt lat="43.81427" lon="5.5122">
        <ele>789.9</ele>
        <time>2014-12-25T16:02:36Z</time>
      </trkpt>
      <trkpt lat="43.81433" lon="5.51228">
        <ele>792.7</ele>
        <time>2014-12-25T16:02:53Z</time>
      </trkpt>
      <trkpt lat="43.81438" lon="5.51234">
        <ele>793.7</ele>
        <time>2014-12-25T16:03:10Z</time>
      </trkpt>
      <trkpt lat="43.8144" lon="5.51235">
        <ele>797.1</ele>
        <time>2014-12-25T16:03:14Z</time>
      </trkpt>
      <trkpt lat="43.81447" lon="5.51236">
        <ele>797.6</ele>
        <time>2014-12-25T16:03:31Z</time>
      </trkpt>
      <trkpt lat="43.81451" lon="5.51229">
        <ele>801.9</ele>
        <time>2014-12-25T16:03:46Z</time>
      </trkpt>
      <trkpt lat="43.81458" lon="5.51212">
        <ele>803.3</ele>
        <time>2014-12-25T16:04:11Z</time>
      </trkpt>
      <trkpt lat="43.81457" lon="5.51216">
        <ele>801.4</ele>
        <time>2014-12-25T16:04:35Z</time>
      </trkpt>
      <trkpt lat="43.81453" lon="5.51226">
        <ele>801.4</ele>
        <time>2014-12-25T16:04:50Z</time>
      </trkpt>
      <trkpt lat="43.81442" lon="5.51235">
        <ele>797.1</ele>
        <time>2014-12-25T16:05:05Z</time>
      </trkpt>
      <trkpt lat="43.81442" lon="5.51233">
        <ele>796.1</ele>
        <time>2014-12-25T16:05:07Z</time>
      </trkpt>
      <trkpt lat="43.81438" lon="5.51231">
        <ele>795.1</ele>
        <time>2014-12-25T16:05:14Z</time>
      </trkpt>
      <trkpt lat="43.81435" lon="5.51231">
        <ele>793.7</ele>
        <time>2014-12-25T16:05:19Z</time>
      </trkpt>
      <trkpt lat="43.81431" lon="5.51225">
        <ele>790.3</ele>
        <time>2014-12-25T16:05:26Z</time>
      </trkpt>
      <trkpt lat="43.81429" lon="5.51224">
        <ele>789.9</ele>
        <time>2014-12-25T16:05:30Z</time>
      </trkpt>
      <trkpt lat="43.81426" lon="5.51222">
        <ele>788.9</ele>
        <time>2014-12-25T16:05:32Z</time>
      </trkpt>
      <trkpt lat="43.81421" lon="5.51216">
        <ele>786</ele>
        <time>2014-12-25T16:05:39Z</time>
      </trkpt>
      <trkpt lat="43.81419" lon="5.51213">
        <ele>784.6</ele>
        <time>2014-12-25T16:05:43Z</time>
      </trkpt>
      <trkpt lat="43.81416" lon="5.51213">
        <ele>784.1</ele>
        <time>2014-12-25T16:05:46Z</time>
      </trkpt>
      <trkpt lat="43.81411" lon="5.51209">
        <ele>782.2</ele>
        <time>2014-12-25T16:05:51Z</time>
      </trkpt>
      <trkpt lat="43.81408" lon="5.51207">
        <ele>780.7</ele>
        <time>2014-12-25T16:05:56Z</time>
      </trkpt>
      <trkpt lat="43.81405" lon="5.51204">
        <ele>779.8</ele>
        <time>2014-12-25T16:05:59Z</time>
      </trkpt>
      <trkpt lat="43.81403" lon="5.51199">
        <ele>777.4</ele>
        <time>2014-12-25T16:06:03Z</time>
      </trkpt>
      <trkpt lat="43.81399" lon="5.51186">
        <ele>775</ele>
        <time>2014-12-25T16:06:11Z</time>
      </trkpt>
      <trkpt lat="43.81395" lon="5.51173">
        <ele>773</ele>
        <time>2014-12-25T16:06:25Z</time>
      </trkpt>
      <trkpt lat="43.81393" lon="5.51169">
        <ele>774.5</ele>
        <time>2014-12-25T16:06:42Z</time>
      </trkpt>
      <trkpt lat="43.81397" lon="5.51165">
        <ele>773.5</ele>
        <time>2014-12-25T16:07:40Z</time>
      </trkpt>
      <trkpt lat="43.81393" lon="5.51153">
        <ele>770.2</ele>
        <time>2014-12-25T16:07:58Z</time>
      </trkpt>
      <trkpt lat="43.81393" lon="5.51151">
        <ele>770.2</ele>
        <time>2014-12-25T16:07:59Z</time>
      </trkpt>
      <trkpt lat="43.81392" lon="5.51148">
        <ele>768.7</ele>
        <time>2014-12-25T16:08:02Z</time>
      </trkpt>
      <trkpt lat="43.8139" lon="5.51141">
        <ele>766.3</ele>
        <time>2014-12-25T16:08:10Z</time>
      </trkpt>
      <trkpt lat="43.81385" lon="5.51134">
        <ele>766.3</ele>
        <time>2014-12-25T16:08:18Z</time>
      </trkpt>
      <trkpt lat="43.81374" lon="5.51126">
        <ele>762.5</ele>
        <time>2014-12-25T16:08:38Z</time>
      </trkpt>
      <trkpt lat="43.81371" lon="5.51129">
        <ele>761</ele>
        <time>2014-12-25T16:08:43Z</time>
      </trkpt>
      <trkpt lat="43.8137" lon="5.51134">
        <ele>758.6</ele>
        <time>2014-12-25T16:08:50Z</time>
      </trkpt>
      <trkpt lat="43.81365" lon="5.51142">
        <ele>759.1</ele>
        <time>2014-12-25T16:08:55Z</time>
      </trkpt>
      <trkpt lat="43.81361" lon="5.51152">
        <ele>757.2</ele>
        <time>2014-12-25T16:09:04Z</time>
      </trkpt>
      <trkpt lat="43.81354" lon="5.51157">
        <ele>753.8</ele>
        <time>2014-12-25T16:09:12Z</time>
      </trkpt>
      <trkpt lat="43.81351" lon="5.51159">
        <ele>753.8</ele>
        <time>2014-12-25T16:09:14Z</time>
      </trkpt>
      <trkpt lat="43.8135" lon="5.51161">
        <ele>752.4</ele>
        <time>2014-12-25T16:09:16Z</time>
      </trkpt>
      <trkpt lat="43.81343" lon="5.5117">
        <ele>750.4</ele>
        <time>2014-12-25T16:09:27Z</time>
      </trkpt>
      <trkpt lat="43.81333" lon="5.51184">
        <ele>748</ele>
        <time>2014-12-25T16:09:42Z</time>
      </trkpt>
      <trkpt lat="43.81331" lon="5.51186">
        <ele>748.5</ele>
        <time>2014-12-25T16:09:45Z</time>
      </trkpt>
      <trkpt lat="43.81324" lon="5.51198">
        <ele>747.1</ele>
        <time>2014-12-25T16:09:58Z</time>
      </trkpt>
      <trkpt lat="43.8132" lon="5.51207">
        <ele>745.2</ele>
        <time>2014-12-25T16:10:05Z</time>
      </trkpt>
      <trkpt lat="43.81317" lon="5.51204">
        <ele>744.2</ele>
        <time>2014-12-25T16:10:11Z</time>
      </trkpt>
      <trkpt lat="43.81314" lon="5.51199">
        <ele>743.7</ele>
        <time>2014-12-25T16:10:16Z</time>
      </trkpt>
      <trkpt lat="43.81309" lon="5.51191">
        <ele>742.3</ele>
        <time>2014-12-25T16:10:23Z</time>
      </trkpt>
      <trkpt lat="43.81304" lon="5.51179">
        <ele>740.4</ele>
        <time>2014-12-25T16:10:34Z</time>
      </trkpt>
      <trkpt lat="43.81301" lon="5.51171">
        <ele>739.4</ele>
        <time>2014-12-25T16:10:40Z</time>
      </trkpt>
      <trkpt lat="43.81295" lon="5.51167">
        <ele>737.5</ele>
        <time>2014-12-25T16:10:46Z</time>
      </trkpt>
      <trkpt lat="43.81289" lon="5.51164">
        <ele>734.6</ele>
        <time>2014-12-25T16:10:53Z</time>
      </trkpt>
      <trkpt lat="43.81282" lon="5.51157">
        <ele>731.7</ele>
        <time>2014-12-25T16:11:04Z</time>
      </trkpt>
      <trkpt lat="43.81281" lon="5.51157">
        <ele>731.2</ele>
        <time>2014-12-25T16:11:05Z</time>
      </trkpt>
      <trkpt lat="43.81275" lon="5.51152">
        <ele>727.4</ele>
        <time>2014-12-25T16:11:13Z</time>
      </trkpt>
      <trkpt lat="43.81275" lon="5.51151">
        <ele>731.2</ele>
        <time>2014-12-25T16:11:14Z</time>
      </trkpt>
      <trkpt lat="43.81274" lon="5.5115">
        <ele>727.9</ele>
        <time>2014-12-25T16:11:16Z</time>
      </trkpt>
      <trkpt lat="43.81273" lon="5.5115">
        <ele>727.9</ele>
        <time>2014-12-25T16:11:18Z</time>
      </trkpt>
      <trkpt lat="43.8127" lon="5.51148">
        <ele>726.4</ele>
        <time>2014-12-25T16:11:21Z</time>
      </trkpt>
      <trkpt lat="43.81266" lon="5.51143">
        <ele>723</ele>
        <time>2014-12-25T16:11:27Z</time>
      </trkpt>
      <trkpt lat="43.81264" lon="5.51142">
        <ele>722.1</ele>
        <time>2014-12-25T16:11:29Z</time>
      </trkpt>
      <trkpt lat="43.81255" lon="5.51135">
        <ele>719.2</ele>
        <time>2014-12-25T16:11:46Z</time>
      </trkpt>
      <trkpt lat="43.81255" lon="5.51121">
        <ele>720.2</ele>
        <time>2014-12-25T16:12:03Z</time>
      </trkpt>
      <trkpt lat="43.81256" lon="5.51113">
        <ele>715.8</ele>
        <time>2014-12-25T16:12:22Z</time>
      </trkpt>
      <trkpt lat="43.81256" lon="5.51113">
        <ele>727.9</ele>
        <time>2014-12-25T16:12:24Z</time>
      </trkpt>
      <trkpt lat="43.81256" lon="5.51113">
        <ele>721.6</ele>
        <time>2014-12-25T16:12:25Z</time>
      </trkpt>
      <trkpt lat="43.81256" lon="5.51114">
        <ele>720.2</ele>
        <time>2014-12-25T16:12:28Z</time>
      </trkpt>
      <trkpt lat="43.81249" lon="5.51124">
        <ele>717.8</ele>
        <time>2014-12-25T16:12:47Z</time>
      </trkpt>
      <trkpt lat="43.81233" lon="5.51123">
        <ele>713.9</ele>
        <time>2014-12-25T16:12:57Z</time>
      </trkpt>
      <trkpt lat="43.81216" lon="5.51118">
        <ele>709.6</ele>
        <time>2014-12-25T16:13:01Z</time>
      </trkpt>
      <trkpt lat="43.81202" lon="5.51117">
        <ele>705.3</ele>
        <time>2014-12-25T16:13:04Z</time>
      </trkpt>
      <trkpt lat="43.81189" lon="5.51116">
        <ele>702.9</ele>
        <time>2014-12-25T16:13:07Z</time>
      </trkpt>
      <trkpt lat="43.81186" lon="5.51115">
        <ele>702.4</ele>
        <time>2014-12-25T16:13:08Z</time>
      </trkpt>
      <trkpt lat="43.8117" lon="5.51113">
        <ele>699</ele>
        <time>2014-12-25T16:13:12Z</time>
      </trkpt>
      <trkpt lat="43.81161" lon="5.51114">
        <ele>695.7</ele>
        <time>2014-12-25T16:13:14Z</time>
      </trkpt>
      <trkpt lat="43.81144" lon="5.51113">
        <ele>691.8</ele>
        <time>2014-12-25T16:13:18Z</time>
      </trkpt>
      <trkpt lat="43.81136" lon="5.51113">
        <ele>689.9</ele>
        <time>2014-12-25T16:13:20Z</time>
      </trkpt>
      <trkpt lat="43.81123" lon="5.51106">
        <ele>686.5</ele>
        <time>2014-12-25T16:13:25Z</time>
      </trkpt>
      <trkpt lat="43.81108" lon="5.51093">
        <ele>682.7</ele>
        <time>2014-12-25T16:13:30Z</time>
      </trkpt>
      <trkpt lat="43.81105" lon="5.51092">
        <ele>682.2</ele>
        <time>2014-12-25T16:13:31Z</time>
      </trkpt>
      <trkpt lat="43.8109" lon="5.51081">
        <ele>677.9</ele>
        <time>2014-12-25T16:13:35Z</time>
      </trkpt>
      <trkpt lat="43.81084" lon="5.51072">
        <ele>676.4</ele>
        <time>2014-12-25T16:13:37Z</time>
      </trkpt>
      <trkpt lat="43.81076" lon="5.51059">
        <ele>674.5</ele>
        <time>2014-12-25T16:13:40Z</time>
      </trkpt>
      <trkpt lat="43.81054" lon="5.51055">
        <ele>671.1</ele>
        <time>2014-12-25T16:13:45Z</time>
      </trkpt>
      <trkpt lat="43.81046" lon="5.51049">
        <ele>669.7</ele>
        <time>2014-12-25T16:13:47Z</time>
      </trkpt>
      <trkpt lat="43.81038" lon="5.51041">
        <ele>668.3</ele>
        <time>2014-12-25T16:13:49Z</time>
      </trkpt>
      <trkpt lat="43.8103" lon="5.51034">
        <ele>667.3</ele>
        <time>2014-12-25T16:13:51Z</time>
      </trkpt>
      <trkpt lat="43.81022" lon="5.51029">
        <ele>663.4</ele>
        <time>2014-12-25T16:13:53Z</time>
      </trkpt>
      <trkpt lat="43.81005" lon="5.51021">
        <ele>660.1</ele>
        <time>2014-12-25T16:13:57Z</time>
      </trkpt>
      <trkpt lat="43.80995" lon="5.51017">
        <ele>656.7</ele>
        <time>2014-12-25T16:13:59Z</time>
      </trkpt>
      <trkpt lat="43.80974" lon="5.51009">
        <ele>652.4</ele>
        <time>2014-12-25T16:14:02Z</time>
      </trkpt>
      <trkpt lat="43.80955" lon="5.51">
        <ele>649</ele>
        <time>2014-12-25T16:14:05Z</time>
      </trkpt>
      <trkpt lat="43.80943" lon="5.50988">
        <ele>647.6</ele>
        <time>2014-12-25T16:14:08Z</time>
      </trkpt>
      <trkpt lat="43.8093" lon="5.5098">
        <ele>645.2</ele>
        <time>2014-12-25T16:14:11Z</time>
      </trkpt>
      <trkpt lat="43.80918" lon="5.5098">
        <ele>642.8</ele>
        <time>2014-12-25T16:14:13Z</time>
      </trkpt>
      <trkpt lat="43.809" lon="5.50981">
        <ele>639.4</ele>
        <time>2014-12-25T16:14:16Z</time>
      </trkpt>
      <trkpt lat="43.80884" lon="5.50976">
        <ele>636.5</ele>
        <time>2014-12-25T16:14:19Z</time>
      </trkpt>
      <trkpt lat="43.80872" lon="5.50974">
        <ele>634.1</ele>
        <time>2014-12-25T16:14:21Z</time>
      </trkpt>
      <trkpt lat="43.80856" lon="5.50969">
        <ele>631.2</ele>
        <time>2014-12-25T16:14:24Z</time>
      </trkpt>
      <trkpt lat="43.80844" lon="5.50963">
        <ele>629.8</ele>
        <time>2014-12-25T16:14:26Z</time>
      </trkpt>
      <trkpt lat="43.80839" lon="5.5096">
        <ele>628.8</ele>
        <time>2014-12-25T16:14:27Z</time>
      </trkpt>
      <trkpt lat="43.80829" lon="5.50952">
        <ele>627.9</ele>
        <time>2014-12-25T16:14:29Z</time>
      </trkpt>
      <trkpt lat="43.80813" lon="5.50952">
        <ele>625</ele>
        <time>2014-12-25T16:14:33Z</time>
      </trkpt>
      <trkpt lat="43.80795" lon="5.50955">
        <ele>622.1</ele>
        <time>2014-12-25T16:14:38Z</time>
      </trkpt>
      <trkpt lat="43.80779" lon="5.50965">
        <ele>618.7</ele>
        <time>2014-12-25T16:14:42Z</time>
      </trkpt>
      <trkpt lat="43.80762" lon="5.50963">
        <ele>614.9</ele>
        <time>2014-12-25T16:14:45Z</time>
      </trkpt>
      <trkpt lat="43.80757" lon="5.5096">
        <ele>614.9</ele>
        <time>2014-12-25T16:14:46Z</time>
      </trkpt>
      <trkpt lat="43.80749" lon="5.50954">
        <ele>613.5</ele>
        <time>2014-12-25T16:14:48Z</time>
      </trkpt>
      <trkpt lat="43.8073" lon="5.50943">
        <ele>609.1</ele>
        <time>2014-12-25T16:14:52Z</time>
      </trkpt>
      <trkpt lat="43.80715" lon="5.50935">
        <ele>607.7</ele>
        <time>2014-12-25T16:14:55Z</time>
      </trkpt>
      <trkpt lat="43.80693" lon="5.50924">
        <ele>604.8</ele>
        <time>2014-12-25T16:15:00Z</time>
      </trkpt>
      <trkpt lat="43.80675" lon="5.50912">
        <ele>601.9</ele>
        <time>2014-12-25T16:15:05Z</time>
      </trkpt>
      <trkpt lat="43.80656" lon="5.50913">
        <ele>598.6</ele>
        <time>2014-12-25T16:15:10Z</time>
      </trkpt>
      <trkpt lat="43.80642" lon="5.50901">
        <ele>595.2</ele>
        <time>2014-12-25T16:15:13Z</time>
      </trkpt>
      <trkpt lat="43.8062" lon="5.50893">
        <ele>592.3</ele>
        <time>2014-12-25T16:15:17Z</time>
      </trkpt>
      <trkpt lat="43.80601" lon="5.50879">
        <ele>587.5</ele>
        <time>2014-12-25T16:15:21Z</time>
      </trkpt>
      <trkpt lat="43.80596" lon="5.50877">
        <ele>588</ele>
        <time>2014-12-25T16:15:22Z</time>
      </trkpt>
      <trkpt lat="43.80581" lon="5.50868">
        <ele>585.1</ele>
        <time>2014-12-25T16:15:25Z</time>
      </trkpt>
      <trkpt lat="43.80559" lon="5.50865">
        <ele>581.7</ele>
        <time>2014-12-25T16:15:29Z</time>
      </trkpt>
      <trkpt lat="43.80556" lon="5.50861">
        <ele>581.7</ele>
        <time>2014-12-25T16:15:30Z</time>
      </trkpt>
      <trkpt lat="43.80538" lon="5.50848">
        <ele>579.3</ele>
        <time>2014-12-25T16:15:34Z</time>
      </trkpt>
      <trkpt lat="43.80522" lon="5.50843">
        <ele>576.4</ele>
        <time>2014-12-25T16:15:37Z</time>
      </trkpt>
      <trkpt lat="43.80481" lon="5.50851">
        <ele>571.6</ele>
        <time>2014-12-25T16:15:45Z</time>
      </trkpt>
      <trkpt lat="43.80458" lon="5.50861">
        <ele>568.3</ele>
        <time>2014-12-25T16:15:49Z</time>
      </trkpt>
      <trkpt lat="43.8044" lon="5.50868">
        <ele>565.9</ele>
        <time>2014-12-25T16:15:54Z</time>
      </trkpt>
      <trkpt lat="43.80433" lon="5.50867">
        <ele>564.9</ele>
        <time>2014-12-25T16:15:56Z</time>
      </trkpt>
      <trkpt lat="43.80418" lon="5.50866">
        <ele>562</ele>
        <time>2014-12-25T16:16:00Z</time>
      </trkpt>
      <trkpt lat="43.80411" lon="5.50866">
        <ele>560.6</ele>
        <time>2014-12-25T16:16:02Z</time>
      </trkpt>
      <trkpt lat="43.80406" lon="5.50868">
        <ele>559.6</ele>
        <time>2014-12-25T16:16:04Z</time>
      </trkpt>
      <trkpt lat="43.80404" lon="5.5087">
        <ele>559.6</ele>
        <time>2014-12-25T16:16:05Z</time>
      </trkpt>
      <trkpt lat="43.80395" lon="5.50869">
        <ele>556.7</ele>
        <time>2014-12-25T16:16:09Z</time>
      </trkpt>
      <trkpt lat="43.80381" lon="5.50845">
        <ele>552.9</ele>
        <time>2014-12-25T16:16:16Z</time>
      </trkpt>
      <trkpt lat="43.80361" lon="5.50834">
        <ele>551.5</ele>
        <time>2014-12-25T16:16:21Z</time>
      </trkpt>
      <trkpt lat="43.80335" lon="5.50827">
        <ele>551</ele>
        <time>2014-12-25T16:16:27Z</time>
      </trkpt>
      <trkpt lat="43.80319" lon="5.50813">
        <ele>551.9</ele>
        <time>2014-12-25T16:16:31Z</time>
      </trkpt>
      <trkpt lat="43.80301" lon="5.50779">
        <ele>551.5</ele>
        <time>2014-12-25T16:16:39Z</time>
      </trkpt>
      <trkpt lat="43.80292" lon="5.50765">
        <ele>551.9</ele>
        <time>2014-12-25T16:16:42Z</time>
      </trkpt>
      <trkpt lat="43.80259" lon="5.50733">
        <ele>550.5</ele>
        <time>2014-12-25T16:16:51Z</time>
      </trkpt>
      <trkpt lat="43.80225" lon="5.50703">
        <ele>549.5</ele>
        <time>2014-12-25T16:16:58Z</time>
      </trkpt>
      <trkpt lat="43.80209" lon="5.50691">
        <ele>549.5</ele>
        <time>2014-12-25T16:17:01Z</time>
      </trkpt>
      <trkpt lat="43.80188" lon="5.50688">
        <ele>551</ele>
        <time>2014-12-25T16:17:05Z</time>
      </trkpt>
      <trkpt lat="43.80179" lon="5.50689">
        <ele>552.9</ele>
        <time>2014-12-25T16:17:07Z</time>
      </trkpt>
      <trkpt lat="43.80165" lon="5.50687">
        <ele>553.4</ele>
        <time>2014-12-25T16:17:11Z</time>
      </trkpt>
      <trkpt lat="43.80151" lon="5.50684">
        <ele>552.4</ele>
        <time>2014-12-25T16:17:14Z</time>
      </trkpt>
      <trkpt lat="43.80133" lon="5.50672">
        <ele>550.5</ele>
        <time>2014-12-25T16:17:18Z</time>
      </trkpt>
      <trkpt lat="43.80129" lon="5.50668">
        <ele>549.1</ele>
        <time>2014-12-25T16:17:19Z</time>
      </trkpt>
      <trkpt lat="43.80115" lon="5.50646">
        <ele>544.7</ele>
        <time>2014-12-25T16:17:23Z</time>
      </trkpt>
      <trkpt lat="43.80106" lon="5.50632">
        <ele>543.8</ele>
        <time>2014-12-25T16:17:25Z</time>
      </trkpt>
      <trkpt lat="43.80098" lon="5.50618">
        <ele>542.3</ele>
        <time>2014-12-25T16:17:27Z</time>
      </trkpt>
      <trkpt lat="43.80084" lon="5.50603">
        <ele>540.9</ele>
        <time>2014-12-25T16:17:30Z</time>
      </trkpt>
      <trkpt lat="43.80068" lon="5.506">
        <ele>537</ele>
        <time>2014-12-25T16:17:33Z</time>
      </trkpt>
      <trkpt lat="43.80056" lon="5.50619">
        <ele>534.6</ele>
        <time>2014-12-25T16:17:36Z</time>
      </trkpt>
      <trkpt lat="43.80048" lon="5.50645">
        <ele>532.2</ele>
        <time>2014-12-25T16:17:39Z</time>
      </trkpt>
      <trkpt lat="43.80016" lon="5.50681">
        <ele>527.4</ele>
        <time>2014-12-25T16:17:45Z</time>
      </trkpt>
      <trkpt lat="43.80004" lon="5.50695">
        <ele>526.5</ele>
        <time>2014-12-25T16:17:47Z</time>
      </trkpt>
      <trkpt lat="43.79997" lon="5.50701">
        <ele>525</ele>
        <time>2014-12-25T16:17:48Z</time>
      </trkpt>
      <trkpt lat="43.7998" lon="5.50721">
        <ele>523.6</ele>
        <time>2014-12-25T16:17:51Z</time>
      </trkpt>
      <trkpt lat="43.79975" lon="5.50727">
        <ele>523.6</ele>
        <time>2014-12-25T16:17:52Z</time>
      </trkpt>
      <trkpt lat="43.79943" lon="5.50744">
        <ele>520.7</ele>
        <time>2014-12-25T16:17:58Z</time>
      </trkpt>
      <trkpt lat="43.79933" lon="5.50749">
        <ele>518.8</ele>
        <time>2014-12-25T16:18:00Z</time>
      </trkpt>
      <trkpt lat="43.79911" lon="5.50748">
        <ele>516.4</ele>
        <time>2014-12-25T16:18:05Z</time>
      </trkpt>
      <trkpt lat="43.79903" lon="5.50742">
        <ele>514.9</ele>
        <time>2014-12-25T16:18:07Z</time>
      </trkpt>
      <trkpt lat="43.79887" lon="5.50739">
        <ele>513</ele>
        <time>2014-12-25T16:18:10Z</time>
      </trkpt>
      <trkpt lat="43.79871" lon="5.5075">
        <ele>511.6</ele>
        <time>2014-12-25T16:18:13Z</time>
      </trkpt>
      <trkpt lat="43.79836" lon="5.50769">
        <ele>509.2</ele>
        <time>2014-12-25T16:18:21Z</time>
      </trkpt>
      <trkpt lat="43.79784" lon="5.50791">
        <ele>504.8</ele>
        <time>2014-12-25T16:18:30Z</time>
      </trkpt>
      <trkpt lat="43.79759" lon="5.50804">
        <ele>501.5</ele>
        <time>2014-12-25T16:18:35Z</time>
      </trkpt>
      <trkpt lat="43.79748" lon="5.50807">
        <ele>500.5</ele>
        <time>2014-12-25T16:18:37Z</time>
      </trkpt>
      <trkpt lat="43.79725" lon="5.50813">
        <ele>497.6</ele>
        <time>2014-12-25T16:18:41Z</time>
      </trkpt>
      <trkpt lat="43.79719" lon="5.50814">
        <ele>496.2</ele>
        <time>2014-12-25T16:18:42Z</time>
      </trkpt>
      <trkpt lat="43.79682" lon="5.50839">
        <ele>492.8</ele>
        <time>2014-12-25T16:18:51Z</time>
      </trkpt>
      <trkpt lat="43.79664" lon="5.50836">
        <ele>489</ele>
        <time>2014-12-25T16:18:55Z</time>
      </trkpt>
      <trkpt lat="43.79654" lon="5.50828">
        <ele>485.6</ele>
        <time>2014-12-25T16:18:57Z</time>
      </trkpt>
      <trkpt lat="43.79648" lon="5.50824">
        <ele>485.1</ele>
        <time>2014-12-25T16:18:58Z</time>
      </trkpt>
      <trkpt lat="43.79598" lon="5.50816">
        <ele>482.7</ele>
        <time>2014-12-25T16:19:06Z</time>
      </trkpt>
      <trkpt lat="43.7958" lon="5.50812">
        <ele>483.2</ele>
        <time>2014-12-25T16:19:09Z</time>
      </trkpt>
      <trkpt lat="43.79569" lon="5.50808">
        <ele>482.7</ele>
        <time>2014-12-25T16:19:11Z</time>
      </trkpt>
      <trkpt lat="43.79529" lon="5.50801">
        <ele>481.8</ele>
        <time>2014-12-25T16:19:18Z</time>
      </trkpt>
      <trkpt lat="43.79518" lon="5.50809">
        <ele>482.2</ele>
        <time>2014-12-25T16:19:20Z</time>
      </trkpt>
      <trkpt lat="43.79511" lon="5.50818">
        <ele>484.2</ele>
        <time>2014-12-25T16:19:22Z</time>
      </trkpt>
      <trkpt lat="43.79475" lon="5.50849">
        <ele>481.3</ele>
        <time>2014-12-25T16:19:30Z</time>
      </trkpt>
      <trkpt lat="43.79438" lon="5.5088">
        <ele>476</ele>
        <time>2014-12-25T16:19:35Z</time>
      </trkpt>
      <trkpt lat="43.79401" lon="5.50905">
        <ele>473.1</ele>
        <time>2014-12-25T16:19:39Z</time>
      </trkpt>
      <trkpt lat="43.79372" lon="5.50919">
        <ele>469.3</ele>
        <time>2014-12-25T16:19:42Z</time>
      </trkpt>
      <trkpt lat="43.79339" lon="5.50929">
        <ele>466.4</ele>
        <time>2014-12-25T16:19:45Z</time>
      </trkpt>
      <trkpt lat="43.79296" lon="5.50961">
        <ele>462.1</ele>
        <time>2014-12-25T16:19:50Z</time>
      </trkpt>
      <trkpt lat="43.79245" lon="5.51008">
        <ele>458.7</ele>
        <time>2014-12-25T16:19:56Z</time>
      </trkpt>
      <trkpt lat="43.79225" lon="5.51022">
        <ele>454.4</ele>
        <time>2014-12-25T16:19:58Z</time>
      </trkpt>
      <trkpt lat="43.79205" lon="5.51037">
        <ele>451.5</ele>
        <time>2014-12-25T16:20:00Z</time>
      </trkpt>
      <trkpt lat="43.7916" lon="5.5105">
        <ele>446.7</ele>
        <time>2014-12-25T16:20:04Z</time>
      </trkpt>
      <trkpt lat="43.79137" lon="5.51055">
        <ele>446.7</ele>
        <time>2014-12-25T16:20:06Z</time>
      </trkpt>
      <trkpt lat="43.79099" lon="5.51044">
        <ele>443.3</ele>
        <time>2014-12-25T16:20:10Z</time>
      </trkpt>
      <trkpt lat="43.79088" lon="5.51042">
        <ele>441.9</ele>
        <time>2014-12-25T16:20:11Z</time>
      </trkpt>
      <trkpt lat="43.78983" lon="5.51028">
        <ele>438.5</ele>
        <time>2014-12-25T16:20:20Z</time>
      </trkpt>
      <trkpt lat="43.78971" lon="5.51027">
        <ele>438.5</ele>
        <time>2014-12-25T16:20:21Z</time>
      </trkpt>
      <trkpt lat="43.78885" lon="5.51016">
        <ele>441.9</ele>
        <time>2014-12-25T16:20:29Z</time>
      </trkpt>
      <trkpt lat="43.78856" lon="5.51014">
        <ele>440.4</ele>
        <time>2014-12-25T16:20:32Z</time>
      </trkpt>
      <trkpt lat="43.78814" lon="5.51002">
        <ele>434.2</ele>
        <time>2014-12-25T16:20:36Z</time>
      </trkpt>
      <trkpt lat="43.78804" lon="5.50998">
        <ele>432.7</ele>
        <time>2014-12-25T16:20:37Z</time>
      </trkpt>
      <trkpt lat="43.78727" lon="5.51001">
        <ele>431.8</ele>
        <time>2014-12-25T16:20:44Z</time>
      </trkpt>
      <trkpt lat="43.78637" lon="5.50987">
        <ele>428.4</ele>
        <time>2014-12-25T16:20:52Z</time>
      </trkpt>
      <trkpt lat="43.78607" lon="5.5097">
        <ele>425.5</ele>
        <time>2014-12-25T16:20:55Z</time>
      </trkpt>
      <trkpt lat="43.78598" lon="5.50963">
        <ele>426.5</ele>
        <time>2014-12-25T16:20:56Z</time>
      </trkpt>
      <trkpt lat="43.7857" lon="5.50949">
        <ele>427.9</ele>
        <time>2014-12-25T16:20:59Z</time>
      </trkpt>
      <trkpt lat="43.78529" lon="5.50942">
        <ele>424.6</ele>
        <time>2014-12-25T16:21:03Z</time>
      </trkpt>
      <trkpt lat="43.78518" lon="5.50941">
        <ele>424.6</ele>
        <time>2014-12-25T16:21:04Z</time>
      </trkpt>
      <trkpt lat="43.78507" lon="5.5094">
        <ele>423.6</ele>
        <time>2014-12-25T16:21:05Z</time>
      </trkpt>
      <trkpt lat="43.78486" lon="5.50933">
        <ele>419.3</ele>
        <time>2014-12-25T16:21:07Z</time>
      </trkpt>
      <trkpt lat="43.78452" lon="5.50921">
        <ele>415.4</ele>
        <time>2014-12-25T16:21:10Z</time>
      </trkpt>
      <trkpt lat="43.78418" lon="5.5091">
        <ele>415.9</ele>
        <time>2014-12-25T16:21:13Z</time>
      </trkpt>
      <trkpt lat="43.78241" lon="5.50883">
        <ele>418.3</ele>
        <time>2014-12-25T16:21:31Z</time>
      </trkpt>
      <trkpt lat="43.78199" lon="5.50875">
        <ele>416.4</ele>
        <time>2014-12-25T16:21:36Z</time>
      </trkpt>
      <trkpt lat="43.7819" lon="5.50874">
        <ele>416.4</ele>
        <time>2014-12-25T16:21:37Z</time>
      </trkpt>
      <trkpt lat="43.7816" lon="5.50866">
        <ele>412.1</ele>
        <time>2014-12-25T16:21:40Z</time>
      </trkpt>
      <trkpt lat="43.78129" lon="5.50853">
        <ele>408.2</ele>
        <time>2014-12-25T16:21:43Z</time>
      </trkpt>
      <trkpt lat="43.78106" lon="5.50846">
        <ele>404.4</ele>
        <time>2014-12-25T16:21:45Z</time>
      </trkpt>
      <trkpt lat="43.7806" lon="5.50847">
        <ele>404.4</ele>
        <time>2014-12-25T16:21:49Z</time>
      </trkpt>
      <trkpt lat="43.77994" lon="5.5085">
        <ele>401.5</ele>
        <time>2014-12-25T16:21:55Z</time>
      </trkpt>
      <trkpt lat="43.7795" lon="5.50849">
        <ele>400</ele>
        <time>2014-12-25T16:21:59Z</time>
      </trkpt>
      <trkpt lat="43.77895" lon="5.50844">
        <ele>398.1</ele>
        <time>2014-12-25T16:22:04Z</time>
      </trkpt>
      <trkpt lat="43.77834" lon="5.50832">
        <ele>394.8</ele>
        <time>2014-12-25T16:22:10Z</time>
      </trkpt>
      <trkpt lat="43.77762" lon="5.50805">
        <ele>395.7</ele>
        <time>2014-12-25T16:22:18Z</time>
      </trkpt>
      <trkpt lat="43.77739" lon="5.50808">
        <ele>394.3</ele>
        <time>2014-12-25T16:22:22Z</time>
      </trkpt>
      <trkpt lat="43.7773" lon="5.50821">
        <ele>391.9</ele>
        <time>2014-12-25T16:22:24Z</time>
      </trkpt>
      <trkpt lat="43.77727" lon="5.50828">
        <ele>391.9</ele>
        <time>2014-12-25T16:22:25Z</time>
      </trkpt>
      <trkpt lat="43.77665" lon="5.50952">
        <ele>387.5</ele>
        <time>2014-12-25T16:22:38Z</time>
      </trkpt>
      <trkpt lat="43.77648" lon="5.50985">
        <ele>384.2</ele>
        <time>2014-12-25T16:22:41Z</time>
      </trkpt>
      <trkpt lat="43.77624" lon="5.51032">
        <ele>382.3</ele>
        <time>2014-12-25T16:22:45Z</time>
      </trkpt>
      <trkpt lat="43.77613" lon="5.51056">
        <ele>380.8</ele>
        <time>2014-12-25T16:22:47Z</time>
      </trkpt>
      <trkpt lat="43.77463" lon="5.51349">
        <ele>380.3</ele>
        <time>2014-12-25T16:23:13Z</time>
      </trkpt>
      <trkpt lat="43.77395" lon="5.51479">
        <ele>377</ele>
        <time>2014-12-25T16:23:28Z</time>
      </trkpt>
      <trkpt lat="43.77375" lon="5.51519">
        <ele>373.6</ele>
        <time>2014-12-25T16:23:32Z</time>
      </trkpt>
      <trkpt lat="43.77345" lon="5.51575">
        <ele>369.8</ele>
        <time>2014-12-25T16:23:37Z</time>
      </trkpt>
      <trkpt lat="43.77337" lon="5.51586">
        <ele>368.3</ele>
        <time>2014-12-25T16:23:38Z</time>
      </trkpt>
      <trkpt lat="43.7731" lon="5.51614">
        <ele>365.9</ele>
        <time>2014-12-25T16:23:41Z</time>
      </trkpt>
      <trkpt lat="43.773" lon="5.51622">
        <ele>365.9</ele>
        <time>2014-12-25T16:23:42Z</time>
      </trkpt>
      <trkpt lat="43.77259" lon="5.517">
        <ele>361.1</ele>
        <time>2014-12-25T16:23:48Z</time>
      </trkpt>
      <trkpt lat="43.77245" lon="5.51726">
        <ele>359.2</ele>
        <time>2014-12-25T16:23:50Z</time>
      </trkpt>
      <trkpt lat="43.77228" lon="5.51746">
        <ele>356.8</ele>
        <time>2014-12-25T16:23:52Z</time>
      </trkpt>
      <trkpt lat="43.772" lon="5.51776">
        <ele>359.2</ele>
        <time>2014-12-25T16:23:56Z</time>
      </trkpt>
      <trkpt lat="43.77192" lon="5.51827">
        <ele>358.2</ele>
        <time>2014-12-25T16:24:04Z</time>
      </trkpt>
      <trkpt lat="43.77224" lon="5.51927">
        <ele>360.6</ele>
        <time>2014-12-25T16:24:18Z</time>
      </trkpt>
      <trkpt lat="43.77243" lon="5.52023">
        <ele>364</ele>
        <time>2014-12-25T16:24:32Z</time>
      </trkpt>
      <trkpt lat="43.77246" lon="5.5207">
        <ele>365.4</ele>
        <time>2014-12-25T16:24:40Z</time>
      </trkpt>
      <trkpt lat="43.77248" lon="5.52092">
        <ele>367.4</ele>
        <time>2014-12-25T16:24:44Z</time>
      </trkpt>
      <trkpt lat="43.77234" lon="5.52097">
        <ele>366.4</ele>
        <time>2014-12-25T16:24:49Z</time>
      </trkpt>
      <trkpt lat="43.77229" lon="5.52095">
        <ele>365.9</ele>
        <time>2014-12-25T16:24:50Z</time>
      </trkpt>
      <trkpt lat="43.77213" lon="5.5209">
        <ele>364.5</ele>
        <time>2014-12-25T16:24:53Z</time>
      </trkpt>
      <trkpt lat="43.77206" lon="5.52089">
        <ele>364</ele>
        <time>2014-12-25T16:24:54Z</time>
      </trkpt>
      <trkpt lat="43.77173" lon="5.52092">
        <ele>358.7</ele>
        <time>2014-12-25T16:24:58Z</time>
      </trkpt>
      <trkpt lat="43.77136" lon="5.52101">
        <ele>354.9</ele>
        <time>2014-12-25T16:25:02Z</time>
      </trkpt>
      <trkpt lat="43.77094" lon="5.52113">
        <ele>350.1</ele>
        <time>2014-12-25T16:25:06Z</time>
      </trkpt>
      <trkpt lat="43.77061" lon="5.52124">
        <ele>346.7</ele>
        <time>2014-12-25T16:25:09Z</time>
      </trkpt>
      <trkpt lat="43.76989" lon="5.52147">
        <ele>343.3</ele>
        <time>2014-12-25T16:25:15Z</time>
      </trkpt>
      <trkpt lat="43.76951" lon="5.52158">
        <ele>340.9</ele>
        <time>2014-12-25T16:25:18Z</time>
      </trkpt>
      <trkpt lat="43.7689" lon="5.52185">
        <ele>340</ele>
        <time>2014-12-25T16:25:23Z</time>
      </trkpt>
      <trkpt lat="43.76711" lon="5.52309">
        <ele>339</ele>
        <time>2014-12-25T16:25:42Z</time>
      </trkpt>
      <trkpt lat="43.76694" lon="5.52321">
        <ele>337.1</ele>
        <time>2014-12-25T16:25:44Z</time>
      </trkpt>
      <trkpt lat="43.76677" lon="5.52332">
        <ele>335.6</ele>
        <time>2014-12-25T16:25:46Z</time>
      </trkpt>
      <trkpt lat="43.76623" lon="5.52368">
        <ele>334.2</ele>
        <time>2014-12-25T16:25:52Z</time>
      </trkpt>
      <trkpt lat="43.76587" lon="5.52393">
        <ele>330.8</ele>
        <time>2014-12-25T16:25:56Z</time>
      </trkpt>
      <trkpt lat="43.76525" lon="5.52439">
        <ele>327.5</ele>
        <time>2014-12-25T16:26:03Z</time>
      </trkpt>
      <trkpt lat="43.76439" lon="5.52513">
        <ele>325.1</ele>
        <time>2014-12-25T16:26:13Z</time>
      </trkpt>
      <trkpt lat="43.76347" lon="5.52592">
        <ele>321.7</ele>
        <time>2014-12-25T16:26:24Z</time>
      </trkpt>
      <trkpt lat="43.76269" lon="5.52647">
        <ele>319.3</ele>
        <time>2014-12-25T16:26:33Z</time>
      </trkpt>
      <trkpt lat="43.76144" lon="5.52683">
        <ele>316.9</ele>
        <time>2014-12-25T16:26:47Z</time>
      </trkpt>
      <trkpt lat="43.75976" lon="5.52692">
        <ele>313.5</ele>
        <time>2014-12-25T16:27:08Z</time>
      </trkpt>
      <trkpt lat="43.75968" lon="5.52692">
        <ele>313.5</ele>
        <time>2014-12-25T16:27:09Z</time>
      </trkpt>
      <trkpt lat="43.75884" lon="5.52702">
        <ele>312.1</ele>
        <time>2014-12-25T16:27:21Z</time>
      </trkpt>
      <trkpt lat="43.75874" lon="5.52677">
        <ele>310.6</ele>
        <time>2014-12-25T16:27:26Z</time>
      </trkpt>
      <trkpt lat="43.75877" lon="5.5267">
        <ele>310.6</ele>
        <time>2014-12-25T16:27:27Z</time>
      </trkpt>
      <trkpt lat="43.75901" lon="5.52568">
        <ele>310.6</ele>
        <time>2014-12-25T16:27:41Z</time>
      </trkpt>
      <trkpt lat="43.75896" lon="5.52473">
        <ele>313</ele>
        <time>2014-12-25T16:28:02Z</time>
      </trkpt>
      <trkpt lat="43.75887" lon="5.52386">
        <ele>312.6</ele>
        <time>2014-12-25T16:28:22Z</time>
      </trkpt>
      <trkpt lat="43.75878" lon="5.52299">
        <ele>312.6</ele>
        <time>2014-12-25T16:28:40Z</time>
      </trkpt>
      <trkpt lat="43.75891" lon="5.52287">
        <ele>313</ele>
        <time>2014-12-25T16:28:45Z</time>
      </trkpt>
      <trkpt lat="43.75919" lon="5.52286">
        <ele>314</ele>
        <time>2014-12-25T16:28:57Z</time>
      </trkpt>
      <trkpt lat="43.75924" lon="5.52282">
        <ele>314.5</ele>
        <time>2014-12-25T16:29:02Z</time>
      </trkpt>
      <trkpt lat="43.75931" lon="5.52273">
        <ele>314.5</ele>
        <time>2014-12-25T16:29:35Z</time>
      </trkpt>
      <trkpt lat="43.75934" lon="5.52267">
        <ele>314</ele>
        <time>2014-12-25T16:30:18Z</time>
      </trkpt>
      <trkpt lat="43.75936" lon="5.52267">
        <ele>315.9</ele>
        <time>2014-12-25T16:30:20Z</time>
      </trkpt>
      <trkpt lat="43.75936" lon="5.52266">
        <ele>314.5</ele>
        <time>2014-12-25T16:30:22Z</time>
      </trkpt>
      <trkpt lat="43.75928" lon="5.52278">
        <ele>311.6</ele>
        <time>2014-12-25T16:30:35Z</time>
      </trkpt>
    </trkseg>
  </trk>
</gpx>